<?xml version="1.0" encoding="UTF-8" standalone="no" ?>
<gpx xmlns="http://www.topografix.com/GPX/1/1" xmlns:xsi="http://www.w3.org/2001/XMLSchema-instance" xsi:schemaLocation="http://www.topografix.com/GPX/1/1 http://www.topografix.com/GPX/1/1/gpx.xsd" version="1.1" creator="VisuGPX - https://www.visugpx.com">
  <metadata>
    <name>1 nov. 2015 10:18:40</name>
    <desc><![CDATA[Jolie randonnée au sud-ouest de Paris . 25 km et quelques bons dénivelés. 
Les   parcours très variés entre plaine et sous-bois
Les - passages boueux en temps de pluie
Prudence sur quelques passages sur routes assez étroits
A retrouver aussi sur [url]http://trekkingzone.wordpress.com[/url]]]></desc>
  </metadata>
  <trk>
    <name><![CDATA[1 nov. 2015 10:18:40]]></name>
    <cmt><![CDATA[1 nov. 2015 10:18:40]]></cmt>
    <trkseg>
      <trkpt lat="48.7442" lon="1.92093">
        <ele>164</ele>
        <time>2015-11-01T09:18:41Z</time>
      </trkpt>
      <trkpt lat="48.74432" lon="1.92081">
        <ele>161</ele>
        <time>2015-11-01T09:19:03Z</time>
      </trkpt>
      <trkpt lat="48.74437" lon="1.92083">
        <ele>161</ele>
        <time>2015-11-01T09:19:09Z</time>
      </trkpt>
      <trkpt lat="48.74442" lon="1.9208">
        <ele>161</ele>
        <time>2015-11-01T09:19:14Z</time>
      </trkpt>
      <trkpt lat="48.74452" lon="1.92064">
        <ele>162</ele>
        <time>2015-11-01T09:19:30Z</time>
      </trkpt>
      <trkpt lat="48.74452" lon="1.92056">
        <ele>162</ele>
        <time>2015-11-01T09:19:38Z</time>
      </trkpt>
      <trkpt lat="48.74456" lon="1.92042">
        <ele>162</ele>
        <time>2015-11-01T09:19:47Z</time>
      </trkpt>
      <trkpt lat="48.74459" lon="1.92036">
        <ele>163</ele>
        <time>2015-11-01T09:19:51Z</time>
      </trkpt>
      <trkpt lat="48.74467" lon="1.92027">
        <ele>163</ele>
        <time>2015-11-01T09:20:04Z</time>
      </trkpt>
      <trkpt lat="48.7447" lon="1.92021">
        <ele>163</ele>
        <time>2015-11-01T09:20:08Z</time>
      </trkpt>
      <trkpt lat="48.74479" lon="1.92014">
        <ele>164</ele>
        <time>2015-11-01T09:20:19Z</time>
      </trkpt>
      <trkpt lat="48.74483" lon="1.92007">
        <ele>164</ele>
        <time>2015-11-01T09:20:23Z</time>
      </trkpt>
      <trkpt lat="48.74518" lon="1.91974">
        <ele>164</ele>
        <time>2015-11-01T09:20:55Z</time>
      </trkpt>
      <trkpt lat="48.74527" lon="1.91967">
        <ele>164</ele>
        <time>2015-11-01T09:21:02Z</time>
      </trkpt>
      <trkpt lat="48.74557" lon="1.91937">
        <ele>163</ele>
        <time>2015-11-01T09:21:35Z</time>
      </trkpt>
      <trkpt lat="48.74567" lon="1.91932">
        <ele>163</ele>
        <time>2015-11-01T09:21:41Z</time>
      </trkpt>
      <trkpt lat="48.74567" lon="1.91921">
        <ele>162</ele>
        <time>2015-11-01T09:21:53Z</time>
      </trkpt>
      <trkpt lat="48.74572" lon="1.91917">
        <ele>162</ele>
        <time>2015-11-01T09:21:59Z</time>
      </trkpt>
      <trkpt lat="48.74577" lon="1.91919">
        <ele>162</ele>
        <time>2015-11-01T09:22:05Z</time>
      </trkpt>
      <trkpt lat="48.7458" lon="1.91925">
        <ele>163</ele>
        <time>2015-11-01T09:22:09Z</time>
      </trkpt>
      <trkpt lat="48.74587" lon="1.91944">
        <ele>163</ele>
        <time>2015-11-01T09:22:22Z</time>
      </trkpt>
      <trkpt lat="48.74588" lon="1.91952">
        <ele>163</ele>
        <time>2015-11-01T09:22:27Z</time>
      </trkpt>
      <trkpt lat="48.74591" lon="1.91958">
        <ele>162</ele>
        <time>2015-11-01T09:22:34Z</time>
      </trkpt>
      <trkpt lat="48.74618" lon="1.91934">
        <ele>161</ele>
        <time>2015-11-01T09:22:58Z</time>
      </trkpt>
      <trkpt lat="48.74616" lon="1.91925">
        <ele>162</ele>
        <time>2015-11-01T09:23:08Z</time>
      </trkpt>
      <trkpt lat="48.74604" lon="1.91907">
        <ele>167</ele>
        <time>2015-11-01T09:23:20Z</time>
      </trkpt>
      <trkpt lat="48.74606" lon="1.91901">
        <ele>167</ele>
        <time>2015-11-01T09:23:26Z</time>
      </trkpt>
      <trkpt lat="48.74637" lon="1.91862">
        <ele>168</ele>
        <time>2015-11-01T09:23:59Z</time>
      </trkpt>
      <trkpt lat="48.74665" lon="1.91827">
        <ele>168</ele>
        <time>2015-11-01T09:24:32Z</time>
      </trkpt>
      <trkpt lat="48.7467" lon="1.91811">
        <ele>169</ele>
        <time>2015-11-01T09:24:38Z</time>
      </trkpt>
      <trkpt lat="48.74676" lon="1.91811">
        <ele>169</ele>
        <time>2015-11-01T09:24:47Z</time>
      </trkpt>
      <trkpt lat="48.7469" lon="1.91805">
        <ele>169</ele>
        <time>2015-11-01T09:25:01Z</time>
      </trkpt>
      <trkpt lat="48.74707" lon="1.91771">
        <ele>169</ele>
        <time>2015-11-01T09:25:33Z</time>
      </trkpt>
      <trkpt lat="48.74734" lon="1.91731">
        <ele>171</ele>
        <time>2015-11-01T09:26:02Z</time>
      </trkpt>
      <trkpt lat="48.74738" lon="1.91728">
        <ele>171</ele>
        <time>2015-11-01T09:26:07Z</time>
      </trkpt>
      <trkpt lat="48.74749" lon="1.9173">
        <ele>172</ele>
        <time>2015-11-01T09:26:15Z</time>
      </trkpt>
      <trkpt lat="48.74767" lon="1.91716">
        <ele>172</ele>
        <time>2015-11-01T09:26:35Z</time>
      </trkpt>
      <trkpt lat="48.74776" lon="1.91705">
        <ele>172</ele>
        <time>2015-11-01T09:26:44Z</time>
      </trkpt>
      <trkpt lat="48.74781" lon="1.91704">
        <ele>172</ele>
        <time>2015-11-01T09:26:48Z</time>
      </trkpt>
      <trkpt lat="48.74785" lon="1.91698">
        <ele>172</ele>
        <time>2015-11-01T09:26:52Z</time>
      </trkpt>
      <trkpt lat="48.74787" lon="1.91691">
        <ele>172</ele>
        <time>2015-11-01T09:26:55Z</time>
      </trkpt>
      <trkpt lat="48.74792" lon="1.91688">
        <ele>172</ele>
        <time>2015-11-01T09:27:00Z</time>
      </trkpt>
      <trkpt lat="48.74826" lon="1.9167">
        <ele>171</ele>
        <time>2015-11-01T09:27:31Z</time>
      </trkpt>
      <trkpt lat="48.74862" lon="1.91641">
        <ele>170</ele>
        <time>2015-11-01T09:28:03Z</time>
      </trkpt>
      <trkpt lat="48.74865" lon="1.91636">
        <ele>170</ele>
        <time>2015-11-01T09:28:08Z</time>
      </trkpt>
      <trkpt lat="48.74875" lon="1.9163">
        <ele>170</ele>
        <time>2015-11-01T09:28:17Z</time>
      </trkpt>
      <trkpt lat="48.7491" lon="1.91602">
        <ele>170</ele>
        <time>2015-11-01T09:28:49Z</time>
      </trkpt>
      <trkpt lat="48.74914" lon="1.91597">
        <ele>170</ele>
        <time>2015-11-01T09:28:53Z</time>
      </trkpt>
      <trkpt lat="48.74919" lon="1.91595">
        <ele>170</ele>
        <time>2015-11-01T09:28:57Z</time>
      </trkpt>
      <trkpt lat="48.74928" lon="1.91596">
        <ele>170</ele>
        <time>2015-11-01T09:29:04Z</time>
      </trkpt>
      <trkpt lat="48.7496" lon="1.9157">
        <ele>170</ele>
        <time>2015-11-01T09:29:33Z</time>
      </trkpt>
      <trkpt lat="48.7496" lon="1.91555">
        <ele>170</ele>
        <time>2015-11-01T09:29:39Z</time>
      </trkpt>
      <trkpt lat="48.74947" lon="1.91499">
        <ele>171</ele>
        <time>2015-11-01T09:30:09Z</time>
      </trkpt>
      <trkpt lat="48.74936" lon="1.9145">
        <ele>171</ele>
        <time>2015-11-01T09:30:40Z</time>
      </trkpt>
      <trkpt lat="48.74922" lon="1.9139">
        <ele>171</ele>
        <time>2015-11-01T09:31:11Z</time>
      </trkpt>
      <trkpt lat="48.74905" lon="1.91332">
        <ele>172</ele>
        <time>2015-11-01T09:31:42Z</time>
      </trkpt>
      <trkpt lat="48.74889" lon="1.91272">
        <ele>171</ele>
        <time>2015-11-01T09:32:13Z</time>
      </trkpt>
      <trkpt lat="48.74875" lon="1.91224">
        <ele>172</ele>
        <time>2015-11-01T09:32:43Z</time>
      </trkpt>
      <trkpt lat="48.7486" lon="1.91159">
        <ele>173</ele>
        <time>2015-11-01T09:33:16Z</time>
      </trkpt>
      <trkpt lat="48.74845" lon="1.91101">
        <ele>173</ele>
        <time>2015-11-01T09:33:47Z</time>
      </trkpt>
      <trkpt lat="48.74827" lon="1.9104">
        <ele>173</ele>
        <time>2015-11-01T09:34:18Z</time>
      </trkpt>
      <trkpt lat="48.74813" lon="1.90983">
        <ele>174</ele>
        <time>2015-11-01T09:34:51Z</time>
      </trkpt>
      <trkpt lat="48.74798" lon="1.90926">
        <ele>174</ele>
        <time>2015-11-01T09:35:25Z</time>
      </trkpt>
      <trkpt lat="48.74778" lon="1.90858">
        <ele>175</ele>
        <time>2015-11-01T09:35:55Z</time>
      </trkpt>
      <trkpt lat="48.74763" lon="1.90799">
        <ele>175</ele>
        <time>2015-11-01T09:36:29Z</time>
      </trkpt>
      <trkpt lat="48.74744" lon="1.9074">
        <ele>176</ele>
        <time>2015-11-01T09:37:02Z</time>
      </trkpt>
      <trkpt lat="48.74732" lon="1.90678">
        <ele>176</ele>
        <time>2015-11-01T09:37:31Z</time>
      </trkpt>
      <trkpt lat="48.74735" lon="1.90663">
        <ele>176</ele>
        <time>2015-11-01T09:37:39Z</time>
      </trkpt>
      <trkpt lat="48.74744" lon="1.90655">
        <ele>176</ele>
        <time>2015-11-01T09:37:52Z</time>
      </trkpt>
      <trkpt lat="48.74745" lon="1.90651">
        <ele>175</ele>
        <time>2015-11-01T09:37:58Z</time>
      </trkpt>
      <trkpt lat="48.74748" lon="1.9065">
        <ele>173</ele>
        <time>2015-11-01T09:40:07Z</time>
      </trkpt>
      <trkpt lat="48.74748" lon="1.90645">
        <ele>172</ele>
        <time>2015-11-01T09:42:59Z</time>
      </trkpt>
      <trkpt lat="48.74764" lon="1.90601">
        <ele>172</ele>
        <time>2015-11-01T09:45:06Z</time>
      </trkpt>
      <trkpt lat="48.74775" lon="1.90578">
        <ele>171</ele>
        <time>2015-11-01T09:45:26Z</time>
      </trkpt>
      <trkpt lat="48.74774" lon="1.90571">
        <ele>171</ele>
        <time>2015-11-01T09:45:30Z</time>
      </trkpt>
      <trkpt lat="48.74782" lon="1.90519">
        <ele>170</ele>
        <time>2015-11-01T09:46:01Z</time>
      </trkpt>
      <trkpt lat="48.74788" lon="1.905">
        <ele>170</ele>
        <time>2015-11-01T09:46:11Z</time>
      </trkpt>
      <trkpt lat="48.74787" lon="1.90438">
        <ele>170</ele>
        <time>2015-11-01T09:46:46Z</time>
      </trkpt>
      <trkpt lat="48.74786" lon="1.90417">
        <ele>170</ele>
        <time>2015-11-01T09:47:00Z</time>
      </trkpt>
      <trkpt lat="48.74797" lon="1.90366">
        <ele>169</ele>
        <time>2015-11-01T09:47:32Z</time>
      </trkpt>
      <trkpt lat="48.74813" lon="1.90325">
        <ele>169</ele>
        <time>2015-11-01T09:47:54Z</time>
      </trkpt>
      <trkpt lat="48.74818" lon="1.90322">
        <ele>169</ele>
        <time>2015-11-01T09:47:58Z</time>
      </trkpt>
      <trkpt lat="48.74819" lon="1.90314">
        <ele>169</ele>
        <time>2015-11-01T09:48:03Z</time>
      </trkpt>
      <trkpt lat="48.74819" lon="1.90258">
        <ele>168</ele>
        <time>2015-11-01T09:48:35Z</time>
      </trkpt>
      <trkpt lat="48.7481" lon="1.90187">
        <ele>168</ele>
        <time>2015-11-01T09:49:16Z</time>
      </trkpt>
      <trkpt lat="48.74804" lon="1.90113">
        <ele>167</ele>
        <time>2015-11-01T09:49:48Z</time>
      </trkpt>
      <trkpt lat="48.74806" lon="1.90091">
        <ele>168</ele>
        <time>2015-11-01T09:50:02Z</time>
      </trkpt>
      <trkpt lat="48.74811" lon="1.90085">
        <ele>168</ele>
        <time>2015-11-01T09:50:08Z</time>
      </trkpt>
      <trkpt lat="48.74811" lon="1.90077">
        <ele>167</ele>
        <time>2015-11-01T09:50:14Z</time>
      </trkpt>
      <trkpt lat="48.74814" lon="1.90071">
        <ele>167</ele>
        <time>2015-11-01T09:50:19Z</time>
      </trkpt>
      <trkpt lat="48.74839" lon="1.90021">
        <ele>165</ele>
        <time>2015-11-01T09:50:50Z</time>
      </trkpt>
      <trkpt lat="48.74855" lon="1.89975">
        <ele>162</ele>
        <time>2015-11-01T09:51:16Z</time>
      </trkpt>
      <trkpt lat="48.74872" lon="1.89919">
        <ele>158</ele>
        <time>2015-11-01T09:51:48Z</time>
      </trkpt>
      <trkpt lat="48.74901" lon="1.89881">
        <ele>153</ele>
        <time>2015-11-01T09:52:19Z</time>
      </trkpt>
      <trkpt lat="48.74905" lon="1.89859">
        <ele>152</ele>
        <time>2015-11-01T09:52:33Z</time>
      </trkpt>
      <trkpt lat="48.74915" lon="1.89808">
        <ele>149</ele>
        <time>2015-11-01T09:53:05Z</time>
      </trkpt>
      <trkpt lat="48.74919" lon="1.89801">
        <ele>148</ele>
        <time>2015-11-01T09:53:10Z</time>
      </trkpt>
      <trkpt lat="48.74931" lon="1.89744">
        <ele>143</ele>
        <time>2015-11-01T09:53:46Z</time>
      </trkpt>
      <trkpt lat="48.74953" lon="1.89698">
        <ele>138</ele>
        <time>2015-11-01T09:54:19Z</time>
      </trkpt>
      <trkpt lat="48.74986" lon="1.89656">
        <ele>133</ele>
        <time>2015-11-01T09:54:52Z</time>
      </trkpt>
      <trkpt lat="48.75009" lon="1.89628">
        <ele>128</ele>
        <time>2015-11-01T09:55:18Z</time>
      </trkpt>
      <trkpt lat="48.75012" lon="1.89622">
        <ele>127</ele>
        <time>2015-11-01T09:55:23Z</time>
      </trkpt>
      <trkpt lat="48.75009" lon="1.89614">
        <ele>126</ele>
        <time>2015-11-01T09:55:28Z</time>
      </trkpt>
      <trkpt lat="48.75009" lon="1.89607">
        <ele>126</ele>
        <time>2015-11-01T09:55:33Z</time>
      </trkpt>
      <trkpt lat="48.75007" lon="1.896">
        <ele>126</ele>
        <time>2015-11-01T09:55:37Z</time>
      </trkpt>
      <trkpt lat="48.75011" lon="1.8959">
        <ele>126</ele>
        <time>2015-11-01T09:55:41Z</time>
      </trkpt>
      <trkpt lat="48.75015" lon="1.89571">
        <ele>126</ele>
        <time>2015-11-01T09:55:56Z</time>
      </trkpt>
      <trkpt lat="48.75012" lon="1.89564">
        <ele>127</ele>
        <time>2015-11-01T09:56:01Z</time>
      </trkpt>
      <trkpt lat="48.75005" lon="1.89553">
        <ele>127</ele>
        <time>2015-11-01T09:56:09Z</time>
      </trkpt>
      <trkpt lat="48.74996" lon="1.89544">
        <ele>126</ele>
        <time>2015-11-01T09:56:17Z</time>
      </trkpt>
      <trkpt lat="48.74994" lon="1.89537">
        <ele>126</ele>
        <time>2015-11-01T09:56:21Z</time>
      </trkpt>
      <trkpt lat="48.74994" lon="1.89521">
        <ele>125</ele>
        <time>2015-11-01T09:56:29Z</time>
      </trkpt>
      <trkpt lat="48.75006" lon="1.8946">
        <ele>123</ele>
        <time>2015-11-01T09:57:01Z</time>
      </trkpt>
      <trkpt lat="48.75018" lon="1.89397">
        <ele>122</ele>
        <time>2015-11-01T09:57:36Z</time>
      </trkpt>
      <trkpt lat="48.7502" lon="1.89391">
        <ele>122</ele>
        <time>2015-11-01T09:57:43Z</time>
      </trkpt>
      <trkpt lat="48.75026" lon="1.8939">
        <ele>122</ele>
        <time>2015-11-01T09:57:50Z</time>
      </trkpt>
      <trkpt lat="48.75064" lon="1.89387">
        <ele>121</ele>
        <time>2015-11-01T09:58:21Z</time>
      </trkpt>
      <trkpt lat="48.75084" lon="1.89378">
        <ele>121</ele>
        <time>2015-11-01T09:58:37Z</time>
      </trkpt>
      <trkpt lat="48.75086" lon="1.89373">
        <ele>121</ele>
        <time>2015-11-01T09:58:44Z</time>
      </trkpt>
      <trkpt lat="48.75102" lon="1.89354">
        <ele>121</ele>
        <time>2015-11-01T09:59:02Z</time>
      </trkpt>
      <trkpt lat="48.75121" lon="1.89311">
        <ele>120</ele>
        <time>2015-11-01T09:59:34Z</time>
      </trkpt>
      <trkpt lat="48.75124" lon="1.89304">
        <ele>120</ele>
        <time>2015-11-01T09:59:39Z</time>
      </trkpt>
      <trkpt lat="48.75147" lon="1.89256">
        <ele>117</ele>
        <time>2015-11-01T10:00:10Z</time>
      </trkpt>
      <trkpt lat="48.75155" lon="1.89237">
        <ele>116</ele>
        <time>2015-11-01T10:00:19Z</time>
      </trkpt>
      <trkpt lat="48.75159" lon="1.89234">
        <ele>116</ele>
        <time>2015-11-01T10:00:25Z</time>
      </trkpt>
      <trkpt lat="48.75164" lon="1.89239">
        <ele>116</ele>
        <time>2015-11-01T10:00:29Z</time>
      </trkpt>
      <trkpt lat="48.75166" lon="1.89239">
        <ele>115</ele>
        <time>2015-11-01T10:00:57Z</time>
      </trkpt>
      <trkpt lat="48.75166" lon="1.89232">
        <ele>115</ele>
        <time>2015-11-01T10:01:03Z</time>
      </trkpt>
      <trkpt lat="48.7517" lon="1.89225">
        <ele>114</ele>
        <time>2015-11-01T10:01:11Z</time>
      </trkpt>
      <trkpt lat="48.75174" lon="1.89211">
        <ele>114</ele>
        <time>2015-11-01T10:01:20Z</time>
      </trkpt>
      <trkpt lat="48.75177" lon="1.89206">
        <ele>114</ele>
        <time>2015-11-01T10:01:26Z</time>
      </trkpt>
      <trkpt lat="48.75191" lon="1.89165">
        <ele>113</ele>
        <time>2015-11-01T10:01:54Z</time>
      </trkpt>
      <trkpt lat="48.75225" lon="1.89115">
        <ele>113</ele>
        <time>2015-11-01T10:02:26Z</time>
      </trkpt>
      <trkpt lat="48.75235" lon="1.89097">
        <ele>113</ele>
        <time>2015-11-01T10:02:36Z</time>
      </trkpt>
      <trkpt lat="48.75273" lon="1.8907">
        <ele>113</ele>
        <time>2015-11-01T10:03:06Z</time>
      </trkpt>
      <trkpt lat="48.75305" lon="1.89048">
        <ele>114</ele>
        <time>2015-11-01T10:03:41Z</time>
      </trkpt>
      <trkpt lat="48.75345" lon="1.89024">
        <ele>115</ele>
        <time>2015-11-01T10:04:12Z</time>
      </trkpt>
      <trkpt lat="48.75379" lon="1.8902">
        <ele>115</ele>
        <time>2015-11-01T10:04:44Z</time>
      </trkpt>
      <trkpt lat="48.75423" lon="1.89023">
        <ele>114</ele>
        <time>2015-11-01T10:05:20Z</time>
      </trkpt>
      <trkpt lat="48.7543" lon="1.89025">
        <ele>114</ele>
        <time>2015-11-01T10:05:37Z</time>
      </trkpt>
      <trkpt lat="48.75435" lon="1.89022">
        <ele>115</ele>
        <time>2015-11-01T10:05:51Z</time>
      </trkpt>
      <trkpt lat="48.75448" lon="1.89016">
        <ele>115</ele>
        <time>2015-11-01T10:06:02Z</time>
      </trkpt>
      <trkpt lat="48.75458" lon="1.89023">
        <ele>115</ele>
        <time>2015-11-01T10:06:09Z</time>
      </trkpt>
      <trkpt lat="48.75485" lon="1.89021">
        <ele>115</ele>
        <time>2015-11-01T10:06:46Z</time>
      </trkpt>
      <trkpt lat="48.75498" lon="1.89038">
        <ele>115</ele>
        <time>2015-11-01T10:07:00Z</time>
      </trkpt>
      <trkpt lat="48.75502" lon="1.89059">
        <ele>115</ele>
        <time>2015-11-01T10:07:13Z</time>
      </trkpt>
      <trkpt lat="48.75505" lon="1.89065">
        <ele>115</ele>
        <time>2015-11-01T10:07:16Z</time>
      </trkpt>
      <trkpt lat="48.75508" lon="1.89095">
        <ele>115</ele>
        <time>2015-11-01T10:07:35Z</time>
      </trkpt>
      <trkpt lat="48.75498" lon="1.89167">
        <ele>115</ele>
        <time>2015-11-01T10:08:09Z</time>
      </trkpt>
      <trkpt lat="48.75483" lon="1.89234">
        <ele>115</ele>
        <time>2015-11-01T10:08:41Z</time>
      </trkpt>
      <trkpt lat="48.75482" lon="1.89241">
        <ele>115</ele>
        <time>2015-11-01T10:08:48Z</time>
      </trkpt>
      <trkpt lat="48.75484" lon="1.89271">
        <ele>113</ele>
        <time>2015-11-01T10:09:07Z</time>
      </trkpt>
      <trkpt lat="48.75499" lon="1.89291">
        <ele>112</ele>
        <time>2015-11-01T10:09:20Z</time>
      </trkpt>
      <trkpt lat="48.75528" lon="1.89299">
        <ele>111</ele>
        <time>2015-11-01T10:09:36Z</time>
      </trkpt>
      <trkpt lat="48.75533" lon="1.89309">
        <ele>111</ele>
        <time>2015-11-01T10:09:50Z</time>
      </trkpt>
      <trkpt lat="48.75537" lon="1.89322">
        <ele>111</ele>
        <time>2015-11-01T10:10:03Z</time>
      </trkpt>
      <trkpt lat="48.75554" lon="1.89347">
        <ele>111</ele>
        <time>2015-11-01T10:10:19Z</time>
      </trkpt>
      <trkpt lat="48.75573" lon="1.89394">
        <ele>111</ele>
        <time>2015-11-01T10:10:52Z</time>
      </trkpt>
      <trkpt lat="48.75591" lon="1.89424">
        <ele>110</ele>
        <time>2015-11-01T10:11:05Z</time>
      </trkpt>
      <trkpt lat="48.75596" lon="1.89425">
        <ele>110</ele>
        <time>2015-11-01T10:11:08Z</time>
      </trkpt>
      <trkpt lat="48.75607" lon="1.8944">
        <ele>110</ele>
        <time>2015-11-01T10:11:23Z</time>
      </trkpt>
      <trkpt lat="48.75646" lon="1.89451">
        <ele>111</ele>
        <time>2015-11-01T10:11:54Z</time>
      </trkpt>
      <trkpt lat="48.75685" lon="1.89461">
        <ele>112</ele>
        <time>2015-11-01T10:12:25Z</time>
      </trkpt>
      <trkpt lat="48.75732" lon="1.89464">
        <ele>112</ele>
        <time>2015-11-01T10:13:00Z</time>
      </trkpt>
      <trkpt lat="48.75755" lon="1.89469">
        <ele>112</ele>
        <time>2015-11-01T10:13:18Z</time>
      </trkpt>
      <trkpt lat="48.75798" lon="1.89447">
        <ele>112</ele>
        <time>2015-11-01T10:13:51Z</time>
      </trkpt>
      <trkpt lat="48.75809" lon="1.89447">
        <ele>112</ele>
        <time>2015-11-01T10:13:59Z</time>
      </trkpt>
      <trkpt lat="48.75834" lon="1.8944">
        <ele>112</ele>
        <time>2015-11-01T10:14:18Z</time>
      </trkpt>
      <trkpt lat="48.75839" lon="1.89443">
        <ele>111</ele>
        <time>2015-11-01T10:14:22Z</time>
      </trkpt>
      <trkpt lat="48.75844" lon="1.89442">
        <ele>111</ele>
        <time>2015-11-01T10:14:27Z</time>
      </trkpt>
      <trkpt lat="48.75849" lon="1.89447">
        <ele>111</ele>
        <time>2015-11-01T10:14:30Z</time>
      </trkpt>
      <trkpt lat="48.75871" lon="1.8944">
        <ele>110</ele>
        <time>2015-11-01T10:14:45Z</time>
      </trkpt>
      <trkpt lat="48.75883" lon="1.89447">
        <ele>110</ele>
        <time>2015-11-01T10:14:59Z</time>
      </trkpt>
      <trkpt lat="48.75893" lon="1.89441">
        <ele>110</ele>
        <time>2015-11-01T10:15:10Z</time>
      </trkpt>
      <trkpt lat="48.75905" lon="1.89425">
        <ele>111</ele>
        <time>2015-11-01T10:15:25Z</time>
      </trkpt>
      <trkpt lat="48.75906" lon="1.89419">
        <ele>111</ele>
        <time>2015-11-01T10:15:26Z</time>
      </trkpt>
      <trkpt lat="48.75912" lon="1.89419">
        <ele>111</ele>
        <time>2015-11-01T10:15:31Z</time>
      </trkpt>
      <trkpt lat="48.75926" lon="1.89414">
        <ele>111</ele>
        <time>2015-11-01T10:15:43Z</time>
      </trkpt>
      <trkpt lat="48.75933" lon="1.89405">
        <ele>111</ele>
        <time>2015-11-01T10:15:49Z</time>
      </trkpt>
      <trkpt lat="48.75953" lon="1.894">
        <ele>113</ele>
        <time>2015-11-01T10:16:07Z</time>
      </trkpt>
      <trkpt lat="48.75957" lon="1.89404">
        <ele>113</ele>
        <time>2015-11-01T10:16:12Z</time>
      </trkpt>
      <trkpt lat="48.75966" lon="1.89403">
        <ele>113</ele>
        <time>2015-11-01T10:16:18Z</time>
      </trkpt>
      <trkpt lat="48.7597" lon="1.894">
        <ele>113</ele>
        <time>2015-11-01T10:16:21Z</time>
      </trkpt>
      <trkpt lat="48.7598" lon="1.89402">
        <ele>112</ele>
        <time>2015-11-01T10:16:30Z</time>
      </trkpt>
      <trkpt lat="48.75989" lon="1.8941">
        <ele>112</ele>
        <time>2015-11-01T10:16:40Z</time>
      </trkpt>
      <trkpt lat="48.76005" lon="1.89409">
        <ele>112</ele>
        <time>2015-11-01T10:16:52Z</time>
      </trkpt>
      <trkpt lat="48.76016" lon="1.89411">
        <ele>112</ele>
        <time>2015-11-01T10:17:02Z</time>
      </trkpt>
      <trkpt lat="48.76048" lon="1.89406">
        <ele>114</ele>
        <time>2015-11-01T10:17:28Z</time>
      </trkpt>
      <trkpt lat="48.76053" lon="1.89405">
        <ele>114</ele>
        <time>2015-11-01T10:17:32Z</time>
      </trkpt>
      <trkpt lat="48.76099" lon="1.89382">
        <ele>110</ele>
        <time>2015-11-01T10:18:10Z</time>
      </trkpt>
      <trkpt lat="48.76108" lon="1.89379">
        <ele>109</ele>
        <time>2015-11-01T10:18:20Z</time>
      </trkpt>
      <trkpt lat="48.76109" lon="1.89375">
        <ele>108</ele>
        <time>2015-11-01T10:18:26Z</time>
      </trkpt>
      <trkpt lat="48.76137" lon="1.89354">
        <ele>105</ele>
        <time>2015-11-01T10:18:56Z</time>
      </trkpt>
      <trkpt lat="48.7618" lon="1.89338">
        <ele>103</ele>
        <time>2015-11-01T10:19:29Z</time>
      </trkpt>
      <trkpt lat="48.76221" lon="1.89331">
        <ele>103</ele>
        <time>2015-11-01T10:20:03Z</time>
      </trkpt>
      <trkpt lat="48.76236" lon="1.89319">
        <ele>103</ele>
        <time>2015-11-01T10:20:15Z</time>
      </trkpt>
      <trkpt lat="48.76241" lon="1.89316">
        <ele>102</ele>
        <time>2015-11-01T10:20:20Z</time>
      </trkpt>
      <trkpt lat="48.76266" lon="1.89274">
        <ele>99</ele>
        <time>2015-11-01T10:20:50Z</time>
      </trkpt>
      <trkpt lat="48.7627" lon="1.89269">
        <ele>99</ele>
        <time>2015-11-01T10:20:54Z</time>
      </trkpt>
      <trkpt lat="48.76284" lon="1.89264">
        <ele>100</ele>
        <time>2015-11-01T10:21:05Z</time>
      </trkpt>
      <trkpt lat="48.76318" lon="1.89286">
        <ele>99</ele>
        <time>2015-11-01T10:21:34Z</time>
      </trkpt>
      <trkpt lat="48.76318" lon="1.89281">
        <ele>99</ele>
        <time>2015-11-01T10:22:49Z</time>
      </trkpt>
      <trkpt lat="48.76323" lon="1.89282">
        <ele>99</ele>
        <time>2015-11-01T10:22:52Z</time>
      </trkpt>
      <trkpt lat="48.76325" lon="1.89283">
        <ele>99</ele>
        <time>2015-11-01T10:22:53Z</time>
      </trkpt>
      <trkpt lat="48.76362" lon="1.89312">
        <ele>104</ele>
        <time>2015-11-01T10:23:23Z</time>
      </trkpt>
      <trkpt lat="48.76379" lon="1.89321">
        <ele>103</ele>
        <time>2015-11-01T10:23:37Z</time>
      </trkpt>
      <trkpt lat="48.76386" lon="1.8932">
        <ele>103</ele>
        <time>2015-11-01T10:23:42Z</time>
      </trkpt>
      <trkpt lat="48.76426" lon="1.89346">
        <ele>102</ele>
        <time>2015-11-01T10:24:16Z</time>
      </trkpt>
      <trkpt lat="48.7647" lon="1.89365">
        <ele>102</ele>
        <time>2015-11-01T10:24:48Z</time>
      </trkpt>
      <trkpt lat="48.76508" lon="1.89384">
        <ele>102</ele>
        <time>2015-11-01T10:25:17Z</time>
      </trkpt>
      <trkpt lat="48.76515" lon="1.89382">
        <ele>103</ele>
        <time>2015-11-01T10:25:22Z</time>
      </trkpt>
      <trkpt lat="48.7652" lon="1.89389">
        <ele>103</ele>
        <time>2015-11-01T10:25:26Z</time>
      </trkpt>
      <trkpt lat="48.76526" lon="1.89408">
        <ele>103</ele>
        <time>2015-11-01T10:25:41Z</time>
      </trkpt>
      <trkpt lat="48.76552" lon="1.89449">
        <ele>104</ele>
        <time>2015-11-01T10:26:13Z</time>
      </trkpt>
      <trkpt lat="48.7657" lon="1.89476">
        <ele>105</ele>
        <time>2015-11-01T10:26:28Z</time>
      </trkpt>
      <trkpt lat="48.76578" lon="1.89541">
        <ele>107</ele>
        <time>2015-11-01T10:27:02Z</time>
      </trkpt>
      <trkpt lat="48.76577" lon="1.89571">
        <ele>108</ele>
        <time>2015-11-01T10:27:16Z</time>
      </trkpt>
      <trkpt lat="48.76584" lon="1.89587">
        <ele>109</ele>
        <time>2015-11-01T10:27:24Z</time>
      </trkpt>
      <trkpt lat="48.76584" lon="1.89618">
        <ele>110</ele>
        <time>2015-11-01T10:27:38Z</time>
      </trkpt>
      <trkpt lat="48.76583" lon="1.89625">
        <ele>111</ele>
        <time>2015-11-01T10:27:47Z</time>
      </trkpt>
      <trkpt lat="48.76587" lon="1.89641">
        <ele>112</ele>
        <time>2015-11-01T10:27:57Z</time>
      </trkpt>
      <trkpt lat="48.7659" lon="1.89648">
        <ele>112</ele>
        <time>2015-11-01T10:28:01Z</time>
      </trkpt>
      <trkpt lat="48.76601" lon="1.897">
        <ele>116</ele>
        <time>2015-11-01T10:28:37Z</time>
      </trkpt>
      <trkpt lat="48.76609" lon="1.8971">
        <ele>116</ele>
        <time>2015-11-01T10:28:44Z</time>
      </trkpt>
      <trkpt lat="48.76609" lon="1.89717">
        <ele>117</ele>
        <time>2015-11-01T10:28:55Z</time>
      </trkpt>
      <trkpt lat="48.7663" lon="1.8976">
        <ele>122</ele>
        <time>2015-11-01T10:29:25Z</time>
      </trkpt>
      <trkpt lat="48.76632" lon="1.89766">
        <ele>122</ele>
        <time>2015-11-01T10:29:29Z</time>
      </trkpt>
      <trkpt lat="48.7663" lon="1.89805">
        <ele>126</ele>
        <time>2015-11-01T10:29:58Z</time>
      </trkpt>
      <trkpt lat="48.76638" lon="1.89815">
        <ele>126</ele>
        <time>2015-11-01T10:30:05Z</time>
      </trkpt>
      <trkpt lat="48.76635" lon="1.89823">
        <ele>127</ele>
        <time>2015-11-01T10:30:15Z</time>
      </trkpt>
      <trkpt lat="48.76638" lon="1.89828">
        <ele>129</ele>
        <time>2015-11-01T10:30:27Z</time>
      </trkpt>
      <trkpt lat="48.76637" lon="1.89834">
        <ele>129</ele>
        <time>2015-11-01T10:30:31Z</time>
      </trkpt>
      <trkpt lat="48.76635" lon="1.89845">
        <ele>131</ele>
        <time>2015-11-01T10:30:44Z</time>
      </trkpt>
      <trkpt lat="48.76633" lon="1.89851">
        <ele>131</ele>
        <time>2015-11-01T10:30:48Z</time>
      </trkpt>
      <trkpt lat="48.76635" lon="1.89863">
        <ele>134</ele>
        <time>2015-11-01T10:31:13Z</time>
      </trkpt>
      <trkpt lat="48.76632" lon="1.89869">
        <ele>134</ele>
        <time>2015-11-01T10:31:18Z</time>
      </trkpt>
      <trkpt lat="48.76631" lon="1.89878">
        <ele>136</ele>
        <time>2015-11-01T10:31:34Z</time>
      </trkpt>
      <trkpt lat="48.76626" lon="1.89891">
        <ele>136</ele>
        <time>2015-11-01T10:31:41Z</time>
      </trkpt>
      <trkpt lat="48.76625" lon="1.89909">
        <ele>139</ele>
        <time>2015-11-01T10:32:01Z</time>
      </trkpt>
      <trkpt lat="48.7663" lon="1.89914">
        <ele>140</ele>
        <time>2015-11-01T10:32:05Z</time>
      </trkpt>
      <trkpt lat="48.76629" lon="1.89919">
        <ele>141</ele>
        <time>2015-11-01T10:32:13Z</time>
      </trkpt>
      <trkpt lat="48.76626" lon="1.89925">
        <ele>142</ele>
        <time>2015-11-01T10:32:17Z</time>
      </trkpt>
      <trkpt lat="48.76626" lon="1.89932">
        <ele>142</ele>
        <time>2015-11-01T10:32:22Z</time>
      </trkpt>
      <trkpt lat="48.76628" lon="1.89939">
        <ele>142</ele>
        <time>2015-11-01T10:32:30Z</time>
      </trkpt>
      <trkpt lat="48.76626" lon="1.89945">
        <ele>143</ele>
        <time>2015-11-01T10:32:41Z</time>
      </trkpt>
      <trkpt lat="48.76628" lon="1.89954">
        <ele>143</ele>
        <time>2015-11-01T10:32:47Z</time>
      </trkpt>
      <trkpt lat="48.76624" lon="1.89963">
        <ele>144</ele>
        <time>2015-11-01T10:32:51Z</time>
      </trkpt>
      <trkpt lat="48.76616" lon="1.8997">
        <ele>144</ele>
        <time>2015-11-01T10:32:57Z</time>
      </trkpt>
      <trkpt lat="48.76613" lon="1.89975">
        <ele>145</ele>
        <time>2015-11-01T10:33:01Z</time>
      </trkpt>
      <trkpt lat="48.76591" lon="1.90025">
        <ele>148</ele>
        <time>2015-11-01T10:33:33Z</time>
      </trkpt>
      <trkpt lat="48.76574" lon="1.90045">
        <ele>150</ele>
        <time>2015-11-01T10:33:48Z</time>
      </trkpt>
      <trkpt lat="48.76571" lon="1.90066">
        <ele>151</ele>
        <time>2015-11-01T10:34:00Z</time>
      </trkpt>
      <trkpt lat="48.76566" lon="1.90079">
        <ele>152</ele>
        <time>2015-11-01T10:34:09Z</time>
      </trkpt>
      <trkpt lat="48.76562" lon="1.90117">
        <ele>154</ele>
        <time>2015-11-01T10:34:30Z</time>
      </trkpt>
      <trkpt lat="48.76558" lon="1.90122">
        <ele>155</ele>
        <time>2015-11-01T10:34:34Z</time>
      </trkpt>
      <trkpt lat="48.76559" lon="1.90129">
        <ele>156</ele>
        <time>2015-11-01T10:34:40Z</time>
      </trkpt>
      <trkpt lat="48.76555" lon="1.90137">
        <ele>157</ele>
        <time>2015-11-01T10:34:51Z</time>
      </trkpt>
      <trkpt lat="48.76554" lon="1.90183">
        <ele>159</ele>
        <time>2015-11-01T10:35:13Z</time>
      </trkpt>
      <trkpt lat="48.76557" lon="1.90189">
        <ele>159</ele>
        <time>2015-11-01T10:35:17Z</time>
      </trkpt>
      <trkpt lat="48.76555" lon="1.90197">
        <ele>159</ele>
        <time>2015-11-01T10:35:20Z</time>
      </trkpt>
      <trkpt lat="48.7654" lon="1.90244">
        <ele>160</ele>
        <time>2015-11-01T10:35:54Z</time>
      </trkpt>
      <trkpt lat="48.76533" lon="1.90257">
        <ele>161</ele>
        <time>2015-11-01T10:36:01Z</time>
      </trkpt>
      <trkpt lat="48.76533" lon="1.90264">
        <ele>161</ele>
        <time>2015-11-01T10:36:04Z</time>
      </trkpt>
      <trkpt lat="48.76527" lon="1.90284">
        <ele>163</ele>
        <time>2015-11-01T10:36:18Z</time>
      </trkpt>
      <trkpt lat="48.76532" lon="1.90305">
        <ele>164</ele>
        <time>2015-11-01T10:36:32Z</time>
      </trkpt>
      <trkpt lat="48.76542" lon="1.90338">
        <ele>167</ele>
        <time>2015-11-01T10:36:56Z</time>
      </trkpt>
      <trkpt lat="48.76545" lon="1.90336">
        <ele>168</ele>
        <time>2015-11-01T10:37:18Z</time>
      </trkpt>
      <trkpt lat="48.76549" lon="1.90337">
        <ele>169</ele>
        <time>2015-11-01T10:37:50Z</time>
      </trkpt>
      <trkpt lat="48.7655" lon="1.90345">
        <ele>169</ele>
        <time>2015-11-01T10:37:53Z</time>
      </trkpt>
      <trkpt lat="48.76545" lon="1.90348">
        <ele>169</ele>
        <time>2015-11-01T10:39:32Z</time>
      </trkpt>
      <trkpt lat="48.76549" lon="1.90443">
        <ele>171</ele>
        <time>2015-11-01T10:43:53Z</time>
      </trkpt>
      <trkpt lat="48.76552" lon="1.90449">
        <ele>171</ele>
        <time>2015-11-01T10:43:58Z</time>
      </trkpt>
      <trkpt lat="48.76556" lon="1.90452">
        <ele>171</ele>
        <time>2015-11-01T10:44:01Z</time>
      </trkpt>
      <trkpt lat="48.76559" lon="1.90449">
        <ele>171</ele>
        <time>2015-11-01T10:44:04Z</time>
      </trkpt>
      <trkpt lat="48.76574" lon="1.90435">
        <ele>172</ele>
        <time>2015-11-01T10:44:20Z</time>
      </trkpt>
      <trkpt lat="48.76593" lon="1.9043">
        <ele>172</ele>
        <time>2015-11-01T10:44:37Z</time>
      </trkpt>
      <trkpt lat="48.76613" lon="1.90447">
        <ele>173</ele>
        <time>2015-11-01T10:44:52Z</time>
      </trkpt>
      <trkpt lat="48.76649" lon="1.90475">
        <ele>172</ele>
        <time>2015-11-01T10:45:26Z</time>
      </trkpt>
      <trkpt lat="48.76653" lon="1.90471">
        <ele>172</ele>
        <time>2015-11-01T10:45:29Z</time>
      </trkpt>
      <trkpt lat="48.76667" lon="1.90462">
        <ele>172</ele>
        <time>2015-11-01T10:45:40Z</time>
      </trkpt>
      <trkpt lat="48.7667" lon="1.90464">
        <ele>172</ele>
        <time>2015-11-01T10:45:48Z</time>
      </trkpt>
      <trkpt lat="48.76687" lon="1.90461">
        <ele>172</ele>
        <time>2015-11-01T10:46:01Z</time>
      </trkpt>
      <trkpt lat="48.7673" lon="1.9044">
        <ele>171</ele>
        <time>2015-11-01T10:46:32Z</time>
      </trkpt>
      <trkpt lat="48.76754" lon="1.9043">
        <ele>171</ele>
        <time>2015-11-01T10:46:50Z</time>
      </trkpt>
      <trkpt lat="48.76758" lon="1.90424">
        <ele>171</ele>
        <time>2015-11-01T10:46:54Z</time>
      </trkpt>
      <trkpt lat="48.76763" lon="1.90422">
        <ele>171</ele>
        <time>2015-11-01T10:46:58Z</time>
      </trkpt>
      <trkpt lat="48.76769" lon="1.90424">
        <ele>171</ele>
        <time>2015-11-01T10:47:06Z</time>
      </trkpt>
      <trkpt lat="48.76803" lon="1.90419">
        <ele>170</ele>
        <time>2015-11-01T10:47:37Z</time>
      </trkpt>
      <trkpt lat="48.7685" lon="1.90424">
        <ele>170</ele>
        <time>2015-11-01T10:48:07Z</time>
      </trkpt>
      <trkpt lat="48.76898" lon="1.90442">
        <ele>170</ele>
        <time>2015-11-01T10:48:41Z</time>
      </trkpt>
      <trkpt lat="48.76923" lon="1.90443">
        <ele>169</ele>
        <time>2015-11-01T10:49:12Z</time>
      </trkpt>
      <trkpt lat="48.76978" lon="1.9044">
        <ele>169</ele>
        <time>2015-11-01T10:49:42Z</time>
      </trkpt>
      <trkpt lat="48.76983" lon="1.90439">
        <ele>169</ele>
        <time>2015-11-01T10:49:45Z</time>
      </trkpt>
      <trkpt lat="48.76987" lon="1.90438">
        <ele>169</ele>
        <time>2015-11-01T10:49:50Z</time>
      </trkpt>
      <trkpt lat="48.77001" lon="1.90441">
        <ele>169</ele>
        <time>2015-11-01T10:49:59Z</time>
      </trkpt>
      <trkpt lat="48.77006" lon="1.90439">
        <ele>170</ele>
        <time>2015-11-01T10:50:03Z</time>
      </trkpt>
      <trkpt lat="48.77011" lon="1.90437">
        <ele>169</ele>
        <time>2015-11-01T10:50:07Z</time>
      </trkpt>
      <trkpt lat="48.77024" lon="1.90432">
        <ele>169</ele>
        <time>2015-11-01T10:50:20Z</time>
      </trkpt>
      <trkpt lat="48.77031" lon="1.90433">
        <ele>170</ele>
        <time>2015-11-01T10:50:31Z</time>
      </trkpt>
      <trkpt lat="48.77036" lon="1.90436">
        <ele>170</ele>
        <time>2015-11-01T10:50:49Z</time>
      </trkpt>
      <trkpt lat="48.77049" lon="1.90435">
        <ele>169</ele>
        <time>2015-11-01T10:50:58Z</time>
      </trkpt>
      <trkpt lat="48.77066" lon="1.90424">
        <ele>169</ele>
        <time>2015-11-01T10:51:16Z</time>
      </trkpt>
      <trkpt lat="48.77083" lon="1.90424">
        <ele>169</ele>
        <time>2015-11-01T10:51:30Z</time>
      </trkpt>
      <trkpt lat="48.77087" lon="1.90421">
        <ele>169</ele>
        <time>2015-11-01T10:51:40Z</time>
      </trkpt>
      <trkpt lat="48.77092" lon="1.90425">
        <ele>168</ele>
        <time>2015-11-01T10:51:44Z</time>
      </trkpt>
      <trkpt lat="48.77131" lon="1.90427">
        <ele>168</ele>
        <time>2015-11-01T10:52:14Z</time>
      </trkpt>
      <trkpt lat="48.77167" lon="1.9043">
        <ele>166</ele>
        <time>2015-11-01T10:52:48Z</time>
      </trkpt>
      <trkpt lat="48.77207" lon="1.90431">
        <ele>164</ele>
        <time>2015-11-01T10:53:19Z</time>
      </trkpt>
      <trkpt lat="48.77216" lon="1.90434">
        <ele>164</ele>
        <time>2015-11-01T10:53:27Z</time>
      </trkpt>
      <trkpt lat="48.77217" lon="1.90427">
        <ele>164</ele>
        <time>2015-11-01T10:53:32Z</time>
      </trkpt>
      <trkpt lat="48.77217" lon="1.90419">
        <ele>164</ele>
        <time>2015-11-01T10:53:36Z</time>
      </trkpt>
      <trkpt lat="48.77226" lon="1.9041">
        <ele>164</ele>
        <time>2015-11-01T10:53:47Z</time>
      </trkpt>
      <trkpt lat="48.77251" lon="1.90363">
        <ele>164</ele>
        <time>2015-11-01T10:54:19Z</time>
      </trkpt>
      <trkpt lat="48.77273" lon="1.90313">
        <ele>164</ele>
        <time>2015-11-01T10:54:51Z</time>
      </trkpt>
      <trkpt lat="48.77273" lon="1.90304">
        <ele>164</ele>
        <time>2015-11-01T10:54:55Z</time>
      </trkpt>
      <trkpt lat="48.77278" lon="1.90291">
        <ele>164</ele>
        <time>2015-11-01T10:55:03Z</time>
      </trkpt>
      <trkpt lat="48.77278" lon="1.90282">
        <ele>163</ele>
        <time>2015-11-01T10:55:09Z</time>
      </trkpt>
      <trkpt lat="48.77291" lon="1.90258">
        <ele>162</ele>
        <time>2015-11-01T10:55:24Z</time>
      </trkpt>
      <trkpt lat="48.77303" lon="1.90216">
        <ele>160</ele>
        <time>2015-11-01T10:55:48Z</time>
      </trkpt>
      <trkpt lat="48.77303" lon="1.90212">
        <ele>159</ele>
        <time>2015-11-01T10:55:55Z</time>
      </trkpt>
      <trkpt lat="48.77302" lon="1.90205">
        <ele>159</ele>
        <time>2015-11-01T10:55:58Z</time>
      </trkpt>
      <trkpt lat="48.77304" lon="1.90204">
        <ele>158</ele>
        <time>2015-11-01T10:56:04Z</time>
      </trkpt>
      <trkpt lat="48.77308" lon="1.902">
        <ele>158</ele>
        <time>2015-11-01T10:56:08Z</time>
      </trkpt>
      <trkpt lat="48.77317" lon="1.9018">
        <ele>155</ele>
        <time>2015-11-01T10:56:25Z</time>
      </trkpt>
      <trkpt lat="48.77322" lon="1.90174">
        <ele>154</ele>
        <time>2015-11-01T10:56:28Z</time>
      </trkpt>
      <trkpt lat="48.7733" lon="1.90144">
        <ele>153</ele>
        <time>2015-11-01T10:56:41Z</time>
      </trkpt>
      <trkpt lat="48.77333" lon="1.90138">
        <ele>152</ele>
        <time>2015-11-01T10:56:55Z</time>
      </trkpt>
      <trkpt lat="48.77335" lon="1.90121">
        <ele>151</ele>
        <time>2015-11-01T10:57:04Z</time>
      </trkpt>
      <trkpt lat="48.7734" lon="1.9011">
        <ele>150</ele>
        <time>2015-11-01T10:57:12Z</time>
      </trkpt>
      <trkpt lat="48.77352" lon="1.90066">
        <ele>146</ele>
        <time>2015-11-01T10:57:44Z</time>
      </trkpt>
      <trkpt lat="48.77365" lon="1.90047">
        <ele>144</ele>
        <time>2015-11-01T10:57:59Z</time>
      </trkpt>
      <trkpt lat="48.77379" lon="1.90015">
        <ele>142</ele>
        <time>2015-11-01T10:58:14Z</time>
      </trkpt>
      <trkpt lat="48.77407" lon="1.89971">
        <ele>138</ele>
        <time>2015-11-01T10:58:44Z</time>
      </trkpt>
      <trkpt lat="48.77413" lon="1.89958">
        <ele>136</ele>
        <time>2015-11-01T10:58:54Z</time>
      </trkpt>
      <trkpt lat="48.77423" lon="1.89952">
        <ele>135</ele>
        <time>2015-11-01T10:59:01Z</time>
      </trkpt>
      <trkpt lat="48.77426" lon="1.89946">
        <ele>135</ele>
        <time>2015-11-01T10:59:07Z</time>
      </trkpt>
      <trkpt lat="48.7746" lon="1.89931">
        <ele>131</ele>
        <time>2015-11-01T10:59:33Z</time>
      </trkpt>
      <trkpt lat="48.77465" lon="1.89932">
        <ele>131</ele>
        <time>2015-11-01T10:59:37Z</time>
      </trkpt>
      <trkpt lat="48.77476" lon="1.89923">
        <ele>130</ele>
        <time>2015-11-01T10:59:48Z</time>
      </trkpt>
      <trkpt lat="48.77479" lon="1.89923">
        <ele>130</ele>
        <time>2015-11-01T10:59:50Z</time>
      </trkpt>
      <trkpt lat="48.775" lon="1.89899">
        <ele>130</ele>
        <time>2015-11-01T11:00:15Z</time>
      </trkpt>
      <trkpt lat="48.7751" lon="1.89901">
        <ele>130</ele>
        <time>2015-11-01T11:00:20Z</time>
      </trkpt>
      <trkpt lat="48.77514" lon="1.899">
        <ele>129</ele>
        <time>2015-11-01T11:00:22Z</time>
      </trkpt>
      <trkpt lat="48.77529" lon="1.89895">
        <ele>129</ele>
        <time>2015-11-01T11:00:30Z</time>
      </trkpt>
      <trkpt lat="48.77535" lon="1.89883">
        <ele>128</ele>
        <time>2015-11-01T11:00:37Z</time>
      </trkpt>
      <trkpt lat="48.7754" lon="1.89873">
        <ele>128</ele>
        <time>2015-11-01T11:00:48Z</time>
      </trkpt>
      <trkpt lat="48.77543" lon="1.8986">
        <ele>128</ele>
        <time>2015-11-01T11:00:57Z</time>
      </trkpt>
      <trkpt lat="48.77557" lon="1.89843">
        <ele>129</ele>
        <time>2015-11-01T11:01:10Z</time>
      </trkpt>
      <trkpt lat="48.77559" lon="1.89834">
        <ele>129</ele>
        <time>2015-11-01T11:01:15Z</time>
      </trkpt>
      <trkpt lat="48.77566" lon="1.89825">
        <ele>130</ele>
        <time>2015-11-01T11:01:22Z</time>
      </trkpt>
      <trkpt lat="48.77595" lon="1.89772">
        <ele>132</ele>
        <time>2015-11-01T11:01:56Z</time>
      </trkpt>
      <trkpt lat="48.77605" lon="1.89758">
        <ele>131</ele>
        <time>2015-11-01T11:02:13Z</time>
      </trkpt>
      <trkpt lat="48.77609" lon="1.89757">
        <ele>131</ele>
        <time>2015-11-01T11:03:11Z</time>
      </trkpt>
      <trkpt lat="48.77609" lon="1.89751">
        <ele>131</ele>
        <time>2015-11-01T11:03:16Z</time>
      </trkpt>
      <trkpt lat="48.77608" lon="1.89747">
        <ele>131</ele>
        <time>2015-11-01T11:04:12Z</time>
      </trkpt>
      <trkpt lat="48.7761" lon="1.89743">
        <ele>135</ele>
        <time>2015-11-01T11:05:33Z</time>
      </trkpt>
      <trkpt lat="48.77613" lon="1.89737">
        <ele>135</ele>
        <time>2015-11-01T11:05:38Z</time>
      </trkpt>
      <trkpt lat="48.77617" lon="1.89732">
        <ele>135</ele>
        <time>2015-11-01T11:05:43Z</time>
      </trkpt>
      <trkpt lat="48.77627" lon="1.8973">
        <ele>135</ele>
        <time>2015-11-01T11:05:53Z</time>
      </trkpt>
      <trkpt lat="48.7763" lon="1.89723">
        <ele>135</ele>
        <time>2015-11-01T11:05:59Z</time>
      </trkpt>
      <trkpt lat="48.77634" lon="1.89722">
        <ele>134</ele>
        <time>2015-11-01T11:06:03Z</time>
      </trkpt>
      <trkpt lat="48.77636" lon="1.89714">
        <ele>134</ele>
        <time>2015-11-01T11:06:12Z</time>
      </trkpt>
      <trkpt lat="48.7764" lon="1.89708">
        <ele>134</ele>
        <time>2015-11-01T11:06:22Z</time>
      </trkpt>
      <trkpt lat="48.77651" lon="1.89702">
        <ele>134</ele>
        <time>2015-11-01T11:06:32Z</time>
      </trkpt>
      <trkpt lat="48.77666" lon="1.89701">
        <ele>134</ele>
        <time>2015-11-01T11:06:44Z</time>
      </trkpt>
      <trkpt lat="48.77671" lon="1.89696">
        <ele>133</ele>
        <time>2015-11-01T11:06:49Z</time>
      </trkpt>
      <trkpt lat="48.77677" lon="1.89695">
        <ele>133</ele>
        <time>2015-11-01T11:06:53Z</time>
      </trkpt>
      <trkpt lat="48.77696" lon="1.89672">
        <ele>132</ele>
        <time>2015-11-01T11:07:10Z</time>
      </trkpt>
      <trkpt lat="48.77698" lon="1.89666">
        <ele>132</ele>
        <time>2015-11-01T11:07:12Z</time>
      </trkpt>
      <trkpt lat="48.77703" lon="1.89661">
        <ele>132</ele>
        <time>2015-11-01T11:07:17Z</time>
      </trkpt>
      <trkpt lat="48.77736" lon="1.89646">
        <ele>130</ele>
        <time>2015-11-01T11:07:48Z</time>
      </trkpt>
      <trkpt lat="48.77741" lon="1.89645">
        <ele>130</ele>
        <time>2015-11-01T11:07:52Z</time>
      </trkpt>
      <trkpt lat="48.77744" lon="1.8964">
        <ele>130</ele>
        <time>2015-11-01T11:07:57Z</time>
      </trkpt>
      <trkpt lat="48.77787" lon="1.89603">
        <ele>129</ele>
        <time>2015-11-01T11:08:31Z</time>
      </trkpt>
      <trkpt lat="48.77788" lon="1.89595">
        <ele>129</ele>
        <time>2015-11-01T11:08:37Z</time>
      </trkpt>
      <trkpt lat="48.77813" lon="1.89562">
        <ele>127</ele>
        <time>2015-11-01T11:09:08Z</time>
      </trkpt>
      <trkpt lat="48.77838" lon="1.89536">
        <ele>126</ele>
        <time>2015-11-01T11:09:30Z</time>
      </trkpt>
      <trkpt lat="48.77843" lon="1.89535">
        <ele>126</ele>
        <time>2015-11-01T11:09:34Z</time>
      </trkpt>
      <trkpt lat="48.77847" lon="1.89528">
        <ele>126</ele>
        <time>2015-11-01T11:09:37Z</time>
      </trkpt>
      <trkpt lat="48.77847" lon="1.89522">
        <ele>126</ele>
        <time>2015-11-01T11:09:39Z</time>
      </trkpt>
      <trkpt lat="48.7785" lon="1.89516">
        <ele>126</ele>
        <time>2015-11-01T11:09:43Z</time>
      </trkpt>
      <trkpt lat="48.77861" lon="1.89497">
        <ele>125</ele>
        <time>2015-11-01T11:09:57Z</time>
      </trkpt>
      <trkpt lat="48.77859" lon="1.89493">
        <ele>125</ele>
        <time>2015-11-01T11:09:59Z</time>
      </trkpt>
      <trkpt lat="48.77859" lon="1.89489">
        <ele>125</ele>
        <time>2015-11-01T11:10:04Z</time>
      </trkpt>
      <trkpt lat="48.77861" lon="1.89473">
        <ele>125</ele>
        <time>2015-11-01T11:10:12Z</time>
      </trkpt>
      <trkpt lat="48.77858" lon="1.89469">
        <ele>125</ele>
        <time>2015-11-01T11:10:17Z</time>
      </trkpt>
      <trkpt lat="48.77833" lon="1.8946">
        <ele>124</ele>
        <time>2015-11-01T11:10:41Z</time>
      </trkpt>
      <trkpt lat="48.77828" lon="1.89461">
        <ele>124</ele>
        <time>2015-11-01T11:10:46Z</time>
      </trkpt>
      <trkpt lat="48.77823" lon="1.89459">
        <ele>124</ele>
        <time>2015-11-01T11:10:50Z</time>
      </trkpt>
      <trkpt lat="48.77813" lon="1.89453">
        <ele>123</ele>
        <time>2015-11-01T11:10:58Z</time>
      </trkpt>
      <trkpt lat="48.77804" lon="1.89453">
        <ele>123</ele>
        <time>2015-11-01T11:11:12Z</time>
      </trkpt>
      <trkpt lat="48.77784" lon="1.8944">
        <ele>123</ele>
        <time>2015-11-01T11:11:31Z</time>
      </trkpt>
      <trkpt lat="48.77779" lon="1.89443">
        <ele>123</ele>
        <time>2015-11-01T11:11:36Z</time>
      </trkpt>
      <trkpt lat="48.77776" lon="1.89442">
        <ele>122</ele>
        <time>2015-11-01T11:11:42Z</time>
      </trkpt>
      <trkpt lat="48.77777" lon="1.89436">
        <ele>122</ele>
        <time>2015-11-01T11:11:52Z</time>
      </trkpt>
      <trkpt lat="48.77781" lon="1.89437">
        <ele>122</ele>
        <time>2015-11-01T11:12:01Z</time>
      </trkpt>
      <trkpt lat="48.77786" lon="1.89436">
        <ele>122</ele>
        <time>2015-11-01T11:12:06Z</time>
      </trkpt>
      <trkpt lat="48.7779" lon="1.89438">
        <ele>122</ele>
        <time>2015-11-01T11:12:10Z</time>
      </trkpt>
      <trkpt lat="48.77828" lon="1.89459">
        <ele>120</ele>
        <time>2015-11-01T11:12:41Z</time>
      </trkpt>
      <trkpt lat="48.77838" lon="1.89463">
        <ele>120</ele>
        <time>2015-11-01T11:12:51Z</time>
      </trkpt>
      <trkpt lat="48.77849" lon="1.89459">
        <ele>119</ele>
        <time>2015-11-01T11:13:00Z</time>
      </trkpt>
      <trkpt lat="48.77854" lon="1.89461">
        <ele>119</ele>
        <time>2015-11-01T11:13:07Z</time>
      </trkpt>
      <trkpt lat="48.77856" lon="1.89467">
        <ele>119</ele>
        <time>2015-11-01T11:13:11Z</time>
      </trkpt>
      <trkpt lat="48.77861" lon="1.89463">
        <ele>119</ele>
        <time>2015-11-01T11:13:14Z</time>
      </trkpt>
      <trkpt lat="48.77865" lon="1.8946">
        <ele>119</ele>
        <time>2015-11-01T11:13:18Z</time>
      </trkpt>
      <trkpt lat="48.7787" lon="1.89462">
        <ele>119</ele>
        <time>2015-11-01T11:13:24Z</time>
      </trkpt>
      <trkpt lat="48.77882" lon="1.89469">
        <ele>119</ele>
        <time>2015-11-01T11:13:34Z</time>
      </trkpt>
      <trkpt lat="48.77885" lon="1.89463">
        <ele>119</ele>
        <time>2015-11-01T11:13:39Z</time>
      </trkpt>
      <trkpt lat="48.77904" lon="1.89411">
        <ele>115</ele>
        <time>2015-11-01T11:14:11Z</time>
      </trkpt>
      <trkpt lat="48.7792" lon="1.89355">
        <ele>113</ele>
        <time>2015-11-01T11:14:44Z</time>
      </trkpt>
      <trkpt lat="48.77935" lon="1.89315">
        <ele>111</ele>
        <time>2015-11-01T11:15:10Z</time>
      </trkpt>
      <trkpt lat="48.77938" lon="1.8931">
        <ele>110</ele>
        <time>2015-11-01T11:15:14Z</time>
      </trkpt>
      <trkpt lat="48.77938" lon="1.89301">
        <ele>110</ele>
        <time>2015-11-01T11:15:19Z</time>
      </trkpt>
      <trkpt lat="48.7795" lon="1.89271">
        <ele>109</ele>
        <time>2015-11-01T11:15:37Z</time>
      </trkpt>
      <trkpt lat="48.77958" lon="1.8926">
        <ele>108</ele>
        <time>2015-11-01T11:15:44Z</time>
      </trkpt>
      <trkpt lat="48.77972" lon="1.89219">
        <ele>106</ele>
        <time>2015-11-01T11:16:15Z</time>
      </trkpt>
      <trkpt lat="48.77992" lon="1.89164">
        <ele>104</ele>
        <time>2015-11-01T11:16:48Z</time>
      </trkpt>
      <trkpt lat="48.78007" lon="1.89134">
        <ele>103</ele>
        <time>2015-11-01T11:17:08Z</time>
      </trkpt>
      <trkpt lat="48.78008" lon="1.89119">
        <ele>102</ele>
        <time>2015-11-01T11:17:15Z</time>
      </trkpt>
      <trkpt lat="48.78015" lon="1.89111">
        <ele>102</ele>
        <time>2015-11-01T11:17:21Z</time>
      </trkpt>
      <trkpt lat="48.78019" lon="1.89091">
        <ele>102</ele>
        <time>2015-11-01T11:17:31Z</time>
      </trkpt>
      <trkpt lat="48.78029" lon="1.89069">
        <ele>101</ele>
        <time>2015-11-01T11:17:46Z</time>
      </trkpt>
      <trkpt lat="48.78023" lon="1.89006">
        <ele>100</ele>
        <time>2015-11-01T11:18:18Z</time>
      </trkpt>
      <trkpt lat="48.78024" lon="1.88998">
        <ele>99</ele>
        <time>2015-11-01T11:18:23Z</time>
      </trkpt>
      <trkpt lat="48.78021" lon="1.88983">
        <ele>99</ele>
        <time>2015-11-01T11:18:32Z</time>
      </trkpt>
      <trkpt lat="48.77997" lon="1.88938">
        <ele>99</ele>
        <time>2015-11-01T11:19:03Z</time>
      </trkpt>
      <trkpt lat="48.77963" lon="1.88904">
        <ele>97</ele>
        <time>2015-11-01T11:19:35Z</time>
      </trkpt>
      <trkpt lat="48.77926" lon="1.88884">
        <ele>95</ele>
        <time>2015-11-01T11:20:05Z</time>
      </trkpt>
      <trkpt lat="48.77891" lon="1.88842">
        <ele>91</ele>
        <time>2015-11-01T11:20:39Z</time>
      </trkpt>
      <trkpt lat="48.77862" lon="1.88823">
        <ele>88</ele>
        <time>2015-11-01T11:21:05Z</time>
      </trkpt>
      <trkpt lat="48.77857" lon="1.88823">
        <ele>87</ele>
        <time>2015-11-01T11:21:12Z</time>
      </trkpt>
      <trkpt lat="48.77852" lon="1.8882">
        <ele>86</ele>
        <time>2015-11-01T11:21:17Z</time>
      </trkpt>
      <trkpt lat="48.7783" lon="1.88779">
        <ele>84</ele>
        <time>2015-11-01T11:21:47Z</time>
      </trkpt>
      <trkpt lat="48.77826" lon="1.88773">
        <ele>84</ele>
        <time>2015-11-01T11:21:53Z</time>
      </trkpt>
      <trkpt lat="48.77818" lon="1.8873">
        <ele>83</ele>
        <time>2015-11-01T11:22:24Z</time>
      </trkpt>
      <trkpt lat="48.77817" lon="1.88726">
        <ele>83</ele>
        <time>2015-11-01T11:22:26Z</time>
      </trkpt>
      <trkpt lat="48.77817" lon="1.88684">
        <ele>82</ele>
        <time>2015-11-01T11:22:51Z</time>
      </trkpt>
      <trkpt lat="48.77821" lon="1.88679">
        <ele>82</ele>
        <time>2015-11-01T11:22:55Z</time>
      </trkpt>
      <trkpt lat="48.77822" lon="1.88674">
        <ele>82</ele>
        <time>2015-11-01T11:22:57Z</time>
      </trkpt>
      <trkpt lat="48.77832" lon="1.88619">
        <ele>81</ele>
        <time>2015-11-01T11:23:27Z</time>
      </trkpt>
      <trkpt lat="48.77845" lon="1.88553">
        <ele>81</ele>
        <time>2015-11-01T11:24:01Z</time>
      </trkpt>
      <trkpt lat="48.77855" lon="1.88511">
        <ele>82</ele>
        <time>2015-11-01T11:24:28Z</time>
      </trkpt>
      <trkpt lat="48.77853" lon="1.88504">
        <ele>82</ele>
        <time>2015-11-01T11:24:32Z</time>
      </trkpt>
      <trkpt lat="48.77849" lon="1.88499">
        <ele>82</ele>
        <time>2015-11-01T11:24:36Z</time>
      </trkpt>
      <trkpt lat="48.77844" lon="1.88498">
        <ele>82</ele>
        <time>2015-11-01T11:24:42Z</time>
      </trkpt>
      <trkpt lat="48.77808" lon="1.88511">
        <ele>82</ele>
        <time>2015-11-01T11:25:15Z</time>
      </trkpt>
      <trkpt lat="48.77764" lon="1.88508">
        <ele>83</ele>
        <time>2015-11-01T11:25:48Z</time>
      </trkpt>
      <trkpt lat="48.77731" lon="1.88513">
        <ele>83</ele>
        <time>2015-11-01T11:26:20Z</time>
      </trkpt>
      <trkpt lat="48.77688" lon="1.88525">
        <ele>85</ele>
        <time>2015-11-01T11:26:53Z</time>
      </trkpt>
      <trkpt lat="48.77649" lon="1.88534">
        <ele>87</ele>
        <time>2015-11-01T11:27:24Z</time>
      </trkpt>
      <trkpt lat="48.77605" lon="1.88547">
        <ele>88</ele>
        <time>2015-11-01T11:27:58Z</time>
      </trkpt>
      <trkpt lat="48.77567" lon="1.88549">
        <ele>88</ele>
        <time>2015-11-01T11:28:31Z</time>
      </trkpt>
      <trkpt lat="48.77525" lon="1.88552">
        <ele>88</ele>
        <time>2015-11-01T11:29:03Z</time>
      </trkpt>
      <trkpt lat="48.77487" lon="1.88556">
        <ele>88</ele>
        <time>2015-11-01T11:29:35Z</time>
      </trkpt>
      <trkpt lat="48.7745" lon="1.88562">
        <ele>89</ele>
        <time>2015-11-01T11:30:07Z</time>
      </trkpt>
      <trkpt lat="48.77438" lon="1.88566">
        <ele>89</ele>
        <time>2015-11-01T11:30:17Z</time>
      </trkpt>
      <trkpt lat="48.77418" lon="1.88555">
        <ele>89</ele>
        <time>2015-11-01T11:30:37Z</time>
      </trkpt>
      <trkpt lat="48.77381" lon="1.88559">
        <ele>90</ele>
        <time>2015-11-01T11:31:09Z</time>
      </trkpt>
      <trkpt lat="48.7735" lon="1.88562">
        <ele>90</ele>
        <time>2015-11-01T11:31:36Z</time>
      </trkpt>
      <trkpt lat="48.77348" lon="1.88556">
        <ele>90</ele>
        <time>2015-11-01T11:31:40Z</time>
      </trkpt>
      <trkpt lat="48.77349" lon="1.88549">
        <ele>90</ele>
        <time>2015-11-01T11:31:45Z</time>
      </trkpt>
      <trkpt lat="48.77368" lon="1.88509">
        <ele>89</ele>
        <time>2015-11-01T11:32:18Z</time>
      </trkpt>
      <trkpt lat="48.77391" lon="1.88459">
        <ele>90</ele>
        <time>2015-11-01T11:32:50Z</time>
      </trkpt>
      <trkpt lat="48.77409" lon="1.88409">
        <ele>90</ele>
        <time>2015-11-01T11:33:21Z</time>
      </trkpt>
      <trkpt lat="48.77431" lon="1.88356">
        <ele>90</ele>
        <time>2015-11-01T11:33:55Z</time>
      </trkpt>
      <trkpt lat="48.77451" lon="1.88301">
        <ele>90</ele>
        <time>2015-11-01T11:34:28Z</time>
      </trkpt>
      <trkpt lat="48.7747" lon="1.88254">
        <ele>90</ele>
        <time>2015-11-01T11:34:58Z</time>
      </trkpt>
      <trkpt lat="48.77486" lon="1.8821">
        <ele>89</ele>
        <time>2015-11-01T11:35:31Z</time>
      </trkpt>
      <trkpt lat="48.77495" lon="1.8819">
        <ele>89</ele>
        <time>2015-11-01T11:35:41Z</time>
      </trkpt>
      <trkpt lat="48.77519" lon="1.88143">
        <ele>90</ele>
        <time>2015-11-01T11:36:13Z</time>
      </trkpt>
      <trkpt lat="48.77542" lon="1.8809">
        <ele>91</ele>
        <time>2015-11-01T11:36:45Z</time>
      </trkpt>
      <trkpt lat="48.77547" lon="1.88079">
        <ele>91</ele>
        <time>2015-11-01T11:36:55Z</time>
      </trkpt>
      <trkpt lat="48.77551" lon="1.88075">
        <ele>91</ele>
        <time>2015-11-01T11:36:59Z</time>
      </trkpt>
      <trkpt lat="48.77561" lon="1.88058">
        <ele>91</ele>
        <time>2015-11-01T11:37:12Z</time>
      </trkpt>
      <trkpt lat="48.7759" lon="1.88039">
        <ele>92</ele>
        <time>2015-11-01T11:37:39Z</time>
      </trkpt>
      <trkpt lat="48.77614" lon="1.88032">
        <ele>92</ele>
        <time>2015-11-01T11:38:00Z</time>
      </trkpt>
      <trkpt lat="48.77614" lon="1.88025">
        <ele>92</ele>
        <time>2015-11-01T11:38:04Z</time>
      </trkpt>
      <trkpt lat="48.7762" lon="1.87972">
        <ele>93</ele>
        <time>2015-11-01T11:38:35Z</time>
      </trkpt>
      <trkpt lat="48.77622" lon="1.87915">
        <ele>95</ele>
        <time>2015-11-01T11:39:06Z</time>
      </trkpt>
      <trkpt lat="48.77618" lon="1.87851">
        <ele>97</ele>
        <time>2015-11-01T11:39:42Z</time>
      </trkpt>
      <trkpt lat="48.77617" lon="1.87806">
        <ele>99</ele>
        <time>2015-11-01T11:40:10Z</time>
      </trkpt>
      <trkpt lat="48.77624" lon="1.87795">
        <ele>99</ele>
        <time>2015-11-01T11:40:17Z</time>
      </trkpt>
      <trkpt lat="48.77636" lon="1.87782">
        <ele>100</ele>
        <time>2015-11-01T11:40:29Z</time>
      </trkpt>
      <trkpt lat="48.77638" lon="1.87775">
        <ele>100</ele>
        <time>2015-11-01T11:40:33Z</time>
      </trkpt>
      <trkpt lat="48.77635" lon="1.87768">
        <ele>101</ele>
        <time>2015-11-01T11:40:40Z</time>
      </trkpt>
      <trkpt lat="48.77631" lon="1.87765">
        <ele>102</ele>
        <time>2015-11-01T11:40:47Z</time>
      </trkpt>
      <trkpt lat="48.77601" lon="1.87733">
        <ele>103</ele>
        <time>2015-11-01T11:41:19Z</time>
      </trkpt>
      <trkpt lat="48.77571" lon="1.87707">
        <ele>104</ele>
        <time>2015-11-01T11:41:51Z</time>
      </trkpt>
      <trkpt lat="48.7757" lon="1.877">
        <ele>104</ele>
        <time>2015-11-01T11:41:57Z</time>
      </trkpt>
      <trkpt lat="48.77566" lon="1.87696">
        <ele>104</ele>
        <time>2015-11-01T11:42:02Z</time>
      </trkpt>
      <trkpt lat="48.77533" lon="1.87657">
        <ele>106</ele>
        <time>2015-11-01T11:42:33Z</time>
      </trkpt>
      <trkpt lat="48.77531" lon="1.87651">
        <ele>106</ele>
        <time>2015-11-01T11:42:38Z</time>
      </trkpt>
      <trkpt lat="48.77498" lon="1.87606">
        <ele>107</ele>
        <time>2015-11-01T11:43:12Z</time>
      </trkpt>
      <trkpt lat="48.77467" lon="1.87566">
        <ele>108</ele>
        <time>2015-11-01T11:43:45Z</time>
      </trkpt>
      <trkpt lat="48.77438" lon="1.87534">
        <ele>109</ele>
        <time>2015-11-01T11:44:16Z</time>
      </trkpt>
      <trkpt lat="48.77402" lon="1.87506">
        <ele>109</ele>
        <time>2015-11-01T11:44:47Z</time>
      </trkpt>
      <trkpt lat="48.77363" lon="1.875">
        <ele>110</ele>
        <time>2015-11-01T11:45:17Z</time>
      </trkpt>
      <trkpt lat="48.77329" lon="1.87501">
        <ele>111</ele>
        <time>2015-11-01T11:45:47Z</time>
      </trkpt>
      <trkpt lat="48.77292" lon="1.87474">
        <ele>113</ele>
        <time>2015-11-01T11:46:19Z</time>
      </trkpt>
      <trkpt lat="48.77288" lon="1.87477">
        <ele>113</ele>
        <time>2015-11-01T11:46:32Z</time>
      </trkpt>
      <trkpt lat="48.77289" lon="1.87469">
        <ele>114</ele>
        <time>2015-11-01T11:46:47Z</time>
      </trkpt>
      <trkpt lat="48.77287" lon="1.87404">
        <ele>117</ele>
        <time>2015-11-01T11:47:29Z</time>
      </trkpt>
      <trkpt lat="48.77288" lon="1.87396">
        <ele>117</ele>
        <time>2015-11-01T11:47:31Z</time>
      </trkpt>
      <trkpt lat="48.77284" lon="1.87331">
        <ele>119</ele>
        <time>2015-11-01T11:48:06Z</time>
      </trkpt>
      <trkpt lat="48.77286" lon="1.87271">
        <ele>122</ele>
        <time>2015-11-01T11:48:38Z</time>
      </trkpt>
      <trkpt lat="48.77285" lon="1.87222">
        <ele>124</ele>
        <time>2015-11-01T11:49:10Z</time>
      </trkpt>
      <trkpt lat="48.77285" lon="1.87154">
        <ele>124</ele>
        <time>2015-11-01T11:49:42Z</time>
      </trkpt>
      <trkpt lat="48.77286" lon="1.87105">
        <ele>126</ele>
        <time>2015-11-01T11:50:17Z</time>
      </trkpt>
      <trkpt lat="48.77286" lon="1.8709">
        <ele>126</ele>
        <time>2015-11-01T11:50:31Z</time>
      </trkpt>
      <trkpt lat="48.77293" lon="1.87048">
        <ele>127</ele>
        <time>2015-11-01T11:51:13Z</time>
      </trkpt>
      <trkpt lat="48.7729" lon="1.87046">
        <ele>128</ele>
        <time>2015-11-01T11:52:33Z</time>
      </trkpt>
      <trkpt lat="48.7729" lon="1.87082">
        <ele>134</ele>
        <time>2015-11-01T12:34:13Z</time>
      </trkpt>
      <trkpt lat="48.77298" lon="1.87011">
        <ele>135</ele>
        <time>2015-11-01T13:04:40Z</time>
      </trkpt>
      <trkpt lat="48.77305" lon="1.87001">
        <ele>137</ele>
        <time>2015-11-01T13:04:53Z</time>
      </trkpt>
      <trkpt lat="48.77305" lon="1.86994">
        <ele>137</ele>
        <time>2015-11-01T13:04:58Z</time>
      </trkpt>
      <trkpt lat="48.77305" lon="1.86977">
        <ele>138</ele>
        <time>2015-11-01T13:05:09Z</time>
      </trkpt>
      <trkpt lat="48.77309" lon="1.86928">
        <ele>138</ele>
        <time>2015-11-01T13:05:38Z</time>
      </trkpt>
      <trkpt lat="48.7732" lon="1.86901">
        <ele>138</ele>
        <time>2015-11-01T13:05:56Z</time>
      </trkpt>
      <trkpt lat="48.77326" lon="1.86868">
        <ele>136</ele>
        <time>2015-11-01T13:06:18Z</time>
      </trkpt>
      <trkpt lat="48.77331" lon="1.86825">
        <ele>136</ele>
        <time>2015-11-01T13:06:49Z</time>
      </trkpt>
      <trkpt lat="48.77333" lon="1.86823">
        <ele>136</ele>
        <time>2015-11-01T13:06:56Z</time>
      </trkpt>
      <trkpt lat="48.77338" lon="1.86805">
        <ele>137</ele>
        <time>2015-11-01T13:07:10Z</time>
      </trkpt>
      <trkpt lat="48.77335" lon="1.86792">
        <ele>139</ele>
        <time>2015-11-01T13:07:24Z</time>
      </trkpt>
      <trkpt lat="48.77338" lon="1.86777">
        <ele>140</ele>
        <time>2015-11-01T13:07:36Z</time>
      </trkpt>
      <trkpt lat="48.77341" lon="1.8677">
        <ele>141</ele>
        <time>2015-11-01T13:07:41Z</time>
      </trkpt>
      <trkpt lat="48.7734" lon="1.86756">
        <ele>143</ele>
        <time>2015-11-01T13:07:57Z</time>
      </trkpt>
      <trkpt lat="48.7734" lon="1.86752">
        <ele>144</ele>
        <time>2015-11-01T13:08:15Z</time>
      </trkpt>
      <trkpt lat="48.77341" lon="1.86745">
        <ele>145</ele>
        <time>2015-11-01T13:08:21Z</time>
      </trkpt>
      <trkpt lat="48.77343" lon="1.86724">
        <ele>149</ele>
        <time>2015-11-01T13:08:45Z</time>
      </trkpt>
      <trkpt lat="48.7735" lon="1.86703">
        <ele>152</ele>
        <time>2015-11-01T13:08:57Z</time>
      </trkpt>
      <trkpt lat="48.77352" lon="1.86681">
        <ele>156</ele>
        <time>2015-11-01T13:09:13Z</time>
      </trkpt>
      <trkpt lat="48.77349" lon="1.86676">
        <ele>157</ele>
        <time>2015-11-01T13:09:21Z</time>
      </trkpt>
      <trkpt lat="48.77349" lon="1.86666">
        <ele>159</ele>
        <time>2015-11-01T13:09:37Z</time>
      </trkpt>
      <trkpt lat="48.77351" lon="1.86659">
        <ele>160</ele>
        <time>2015-11-01T13:09:42Z</time>
      </trkpt>
      <trkpt lat="48.77355" lon="1.86655">
        <ele>162</ele>
        <time>2015-11-01T13:09:52Z</time>
      </trkpt>
      <trkpt lat="48.77356" lon="1.86647">
        <ele>163</ele>
        <time>2015-11-01T13:10:04Z</time>
      </trkpt>
      <trkpt lat="48.77366" lon="1.86625">
        <ele>165</ele>
        <time>2015-11-01T13:10:16Z</time>
      </trkpt>
      <trkpt lat="48.77374" lon="1.86583">
        <ele>167</ele>
        <time>2015-11-01T13:10:49Z</time>
      </trkpt>
      <trkpt lat="48.77372" lon="1.86551">
        <ele>169</ele>
        <time>2015-11-01T13:11:07Z</time>
      </trkpt>
      <trkpt lat="48.77377" lon="1.86534">
        <ele>169</ele>
        <time>2015-11-01T13:11:13Z</time>
      </trkpt>
      <trkpt lat="48.77376" lon="1.86518">
        <ele>169</ele>
        <time>2015-11-01T13:11:20Z</time>
      </trkpt>
      <trkpt lat="48.77383" lon="1.8648">
        <ele>170</ele>
        <time>2015-11-01T13:11:36Z</time>
      </trkpt>
      <trkpt lat="48.77392" lon="1.86456">
        <ele>171</ele>
        <time>2015-11-01T13:11:51Z</time>
      </trkpt>
      <trkpt lat="48.77394" lon="1.86441">
        <ele>171</ele>
        <time>2015-11-01T13:12:03Z</time>
      </trkpt>
      <trkpt lat="48.77397" lon="1.86435">
        <ele>171</ele>
        <time>2015-11-01T13:12:05Z</time>
      </trkpt>
      <trkpt lat="48.77397" lon="1.86419">
        <ele>171</ele>
        <time>2015-11-01T13:12:13Z</time>
      </trkpt>
      <trkpt lat="48.77395" lon="1.86403">
        <ele>171</ele>
        <time>2015-11-01T13:12:22Z</time>
      </trkpt>
      <trkpt lat="48.77393" lon="1.86397">
        <ele>171</ele>
        <time>2015-11-01T13:12:26Z</time>
      </trkpt>
      <trkpt lat="48.77391" lon="1.86395">
        <ele>171</ele>
        <time>2015-11-01T13:12:27Z</time>
      </trkpt>
      <trkpt lat="48.77366" lon="1.86382">
        <ele>172</ele>
        <time>2015-11-01T13:12:59Z</time>
      </trkpt>
      <trkpt lat="48.77336" lon="1.8636">
        <ele>173</ele>
        <time>2015-11-01T13:13:29Z</time>
      </trkpt>
      <trkpt lat="48.77316" lon="1.86334">
        <ele>173</ele>
        <time>2015-11-01T13:13:57Z</time>
      </trkpt>
      <trkpt lat="48.7732" lon="1.86331">
        <ele>173</ele>
        <time>2015-11-01T13:14:03Z</time>
      </trkpt>
      <trkpt lat="48.77325" lon="1.86328">
        <ele>173</ele>
        <time>2015-11-01T13:14:08Z</time>
      </trkpt>
      <trkpt lat="48.77325" lon="1.86321">
        <ele>173</ele>
        <time>2015-11-01T13:14:14Z</time>
      </trkpt>
      <trkpt lat="48.77334" lon="1.86313">
        <ele>173</ele>
        <time>2015-11-01T13:14:27Z</time>
      </trkpt>
      <trkpt lat="48.7738" lon="1.86294">
        <ele>172</ele>
        <time>2015-11-01T13:15:00Z</time>
      </trkpt>
      <trkpt lat="48.77385" lon="1.86292">
        <ele>172</ele>
        <time>2015-11-01T13:15:04Z</time>
      </trkpt>
      <trkpt lat="48.77389" lon="1.8629">
        <ele>172</ele>
        <time>2015-11-01T13:15:14Z</time>
      </trkpt>
      <trkpt lat="48.77392" lon="1.86294">
        <ele>172</ele>
        <time>2015-11-01T13:15:26Z</time>
      </trkpt>
      <trkpt lat="48.77392" lon="1.86302">
        <ele>172</ele>
        <time>2015-11-01T13:15:39Z</time>
      </trkpt>
      <trkpt lat="48.77387" lon="1.86305">
        <ele>172</ele>
        <time>2015-11-01T13:15:50Z</time>
      </trkpt>
      <trkpt lat="48.77382" lon="1.86299">
        <ele>172</ele>
        <time>2015-11-01T13:16:01Z</time>
      </trkpt>
      <trkpt lat="48.77378" lon="1.86294">
        <ele>172</ele>
        <time>2015-11-01T13:16:09Z</time>
      </trkpt>
      <trkpt lat="48.77366" lon="1.86288">
        <ele>172</ele>
        <time>2015-11-01T13:16:19Z</time>
      </trkpt>
      <trkpt lat="48.77363" lon="1.86283">
        <ele>173</ele>
        <time>2015-11-01T13:16:22Z</time>
      </trkpt>
      <trkpt lat="48.77351" lon="1.86263">
        <ele>173</ele>
        <time>2015-11-01T13:16:33Z</time>
      </trkpt>
      <trkpt lat="48.77325" lon="1.86249">
        <ele>173</ele>
        <time>2015-11-01T13:16:56Z</time>
      </trkpt>
      <trkpt lat="48.77318" lon="1.86247">
        <ele>173</ele>
        <time>2015-11-01T13:17:05Z</time>
      </trkpt>
      <trkpt lat="48.77315" lon="1.86241">
        <ele>173</ele>
        <time>2015-11-01T13:17:12Z</time>
      </trkpt>
      <trkpt lat="48.77273" lon="1.86217">
        <ele>173</ele>
        <time>2015-11-01T13:17:47Z</time>
      </trkpt>
      <trkpt lat="48.77229" lon="1.8619">
        <ele>173</ele>
        <time>2015-11-01T13:18:20Z</time>
      </trkpt>
      <trkpt lat="48.77225" lon="1.86182">
        <ele>173</ele>
        <time>2015-11-01T13:18:25Z</time>
      </trkpt>
      <trkpt lat="48.77192" lon="1.86143">
        <ele>172</ele>
        <time>2015-11-01T13:18:57Z</time>
      </trkpt>
      <trkpt lat="48.7717" lon="1.86136">
        <ele>172</ele>
        <time>2015-11-01T13:19:22Z</time>
      </trkpt>
      <trkpt lat="48.77136" lon="1.86096">
        <ele>172</ele>
        <time>2015-11-01T13:19:53Z</time>
      </trkpt>
      <trkpt lat="48.77128" lon="1.86097">
        <ele>172</ele>
        <time>2015-11-01T13:19:57Z</time>
      </trkpt>
      <trkpt lat="48.77124" lon="1.86093">
        <ele>172</ele>
        <time>2015-11-01T13:20:01Z</time>
      </trkpt>
      <trkpt lat="48.77113" lon="1.86077">
        <ele>172</ele>
        <time>2015-11-01T13:20:17Z</time>
      </trkpt>
      <trkpt lat="48.77105" lon="1.86043">
        <ele>172</ele>
        <time>2015-11-01T13:20:38Z</time>
      </trkpt>
      <trkpt lat="48.77107" lon="1.86019">
        <ele>172</ele>
        <time>2015-11-01T13:20:49Z</time>
      </trkpt>
      <trkpt lat="48.77105" lon="1.86012">
        <ele>172</ele>
        <time>2015-11-01T13:20:53Z</time>
      </trkpt>
      <trkpt lat="48.77106" lon="1.86004">
        <ele>171</ele>
        <time>2015-11-01T13:20:57Z</time>
      </trkpt>
      <trkpt lat="48.7711" lon="1.85999">
        <ele>171</ele>
        <time>2015-11-01T13:21:02Z</time>
      </trkpt>
      <trkpt lat="48.77111" lon="1.85992">
        <ele>171</ele>
        <time>2015-11-01T13:21:08Z</time>
      </trkpt>
      <trkpt lat="48.77112" lon="1.85975">
        <ele>171</ele>
        <time>2015-11-01T13:21:23Z</time>
      </trkpt>
      <trkpt lat="48.77115" lon="1.85969">
        <ele>170</ele>
        <time>2015-11-01T13:21:27Z</time>
      </trkpt>
      <trkpt lat="48.77116" lon="1.85964">
        <ele>170</ele>
        <time>2015-11-01T13:21:35Z</time>
      </trkpt>
      <trkpt lat="48.77118" lon="1.85957">
        <ele>170</ele>
        <time>2015-11-01T13:21:36Z</time>
      </trkpt>
      <trkpt lat="48.77118" lon="1.85953">
        <ele>169</ele>
        <time>2015-11-01T13:21:43Z</time>
      </trkpt>
      <trkpt lat="48.77119" lon="1.85945">
        <ele>169</ele>
        <time>2015-11-01T13:21:44Z</time>
      </trkpt>
      <trkpt lat="48.77118" lon="1.85937">
        <ele>169</ele>
        <time>2015-11-01T13:21:47Z</time>
      </trkpt>
      <trkpt lat="48.77121" lon="1.85931">
        <ele>169</ele>
        <time>2015-11-01T13:21:50Z</time>
      </trkpt>
      <trkpt lat="48.77125" lon="1.85927">
        <ele>168</ele>
        <time>2015-11-01T13:21:55Z</time>
      </trkpt>
      <trkpt lat="48.77129" lon="1.85922">
        <ele>168</ele>
        <time>2015-11-01T13:21:59Z</time>
      </trkpt>
      <trkpt lat="48.77131" lon="1.85916">
        <ele>168</ele>
        <time>2015-11-01T13:22:22Z</time>
      </trkpt>
      <trkpt lat="48.77129" lon="1.85906">
        <ele>167</ele>
        <time>2015-11-01T13:22:39Z</time>
      </trkpt>
      <trkpt lat="48.77132" lon="1.85905">
        <ele>167</ele>
        <time>2015-11-01T13:22:52Z</time>
      </trkpt>
      <trkpt lat="48.77134" lon="1.85899">
        <ele>166</ele>
        <time>2015-11-01T13:22:54Z</time>
      </trkpt>
      <trkpt lat="48.77138" lon="1.85894">
        <ele>165</ele>
        <time>2015-11-01T13:23:04Z</time>
      </trkpt>
      <trkpt lat="48.77146" lon="1.85883">
        <ele>164</ele>
        <time>2015-11-01T13:23:18Z</time>
      </trkpt>
      <trkpt lat="48.77145" lon="1.85878">
        <ele>164</ele>
        <time>2015-11-01T13:23:20Z</time>
      </trkpt>
      <trkpt lat="48.7715" lon="1.85875">
        <ele>164</ele>
        <time>2015-11-01T13:23:26Z</time>
      </trkpt>
      <trkpt lat="48.77152" lon="1.85872">
        <ele>163</ele>
        <time>2015-11-01T13:23:33Z</time>
      </trkpt>
      <trkpt lat="48.77156" lon="1.85867">
        <ele>163</ele>
        <time>2015-11-01T13:23:36Z</time>
      </trkpt>
      <trkpt lat="48.77158" lon="1.85864">
        <ele>162</ele>
        <time>2015-11-01T13:23:44Z</time>
      </trkpt>
      <trkpt lat="48.77162" lon="1.85859">
        <ele>162</ele>
        <time>2015-11-01T13:23:45Z</time>
      </trkpt>
      <trkpt lat="48.77174" lon="1.8584">
        <ele>160</ele>
        <time>2015-11-01T13:23:58Z</time>
      </trkpt>
      <trkpt lat="48.77178" lon="1.8584">
        <ele>159</ele>
        <time>2015-11-01T13:24:04Z</time>
      </trkpt>
      <trkpt lat="48.77176" lon="1.85834">
        <ele>158</ele>
        <time>2015-11-01T13:24:10Z</time>
      </trkpt>
      <trkpt lat="48.7718" lon="1.85826">
        <ele>158</ele>
        <time>2015-11-01T13:24:17Z</time>
      </trkpt>
      <trkpt lat="48.77184" lon="1.85823">
        <ele>156</ele>
        <time>2015-11-01T13:24:40Z</time>
      </trkpt>
      <trkpt lat="48.77204" lon="1.8582">
        <ele>155</ele>
        <time>2015-11-01T13:24:52Z</time>
      </trkpt>
      <trkpt lat="48.77218" lon="1.85806">
        <ele>154</ele>
        <time>2015-11-01T13:25:10Z</time>
      </trkpt>
      <trkpt lat="48.77249" lon="1.8581">
        <ele>154</ele>
        <time>2015-11-01T13:25:32Z</time>
      </trkpt>
      <trkpt lat="48.77254" lon="1.85798">
        <ele>153</ele>
        <time>2015-11-01T13:25:45Z</time>
      </trkpt>
      <trkpt lat="48.77261" lon="1.85788">
        <ele>150</ele>
        <time>2015-11-01T13:25:59Z</time>
      </trkpt>
      <trkpt lat="48.77268" lon="1.85778">
        <ele>149</ele>
        <time>2015-11-01T13:26:06Z</time>
      </trkpt>
      <trkpt lat="48.7728" lon="1.85747">
        <ele>144</ele>
        <time>2015-11-01T13:26:36Z</time>
      </trkpt>
      <trkpt lat="48.77283" lon="1.85741">
        <ele>144</ele>
        <time>2015-11-01T13:26:43Z</time>
      </trkpt>
      <trkpt lat="48.77287" lon="1.85733">
        <ele>142</ele>
        <time>2015-11-01T13:27:05Z</time>
      </trkpt>
      <trkpt lat="48.77289" lon="1.85726">
        <ele>142</ele>
        <time>2015-11-01T13:27:09Z</time>
      </trkpt>
      <trkpt lat="48.77306" lon="1.85706">
        <ele>139</ele>
        <time>2015-11-01T13:27:38Z</time>
      </trkpt>
      <trkpt lat="48.77312" lon="1.85681">
        <ele>138</ele>
        <time>2015-11-01T13:27:55Z</time>
      </trkpt>
      <trkpt lat="48.77309" lon="1.85676">
        <ele>137</ele>
        <time>2015-11-01T13:28:01Z</time>
      </trkpt>
      <trkpt lat="48.77312" lon="1.85671">
        <ele>137</ele>
        <time>2015-11-01T13:28:11Z</time>
      </trkpt>
      <trkpt lat="48.77315" lon="1.85661">
        <ele>136</ele>
        <time>2015-11-01T13:28:18Z</time>
      </trkpt>
      <trkpt lat="48.7732" lon="1.85658">
        <ele>136</ele>
        <time>2015-11-01T13:28:23Z</time>
      </trkpt>
      <trkpt lat="48.77345" lon="1.85631">
        <ele>134</ele>
        <time>2015-11-01T13:28:57Z</time>
      </trkpt>
      <trkpt lat="48.77365" lon="1.85593">
        <ele>131</ele>
        <time>2015-11-01T13:29:30Z</time>
      </trkpt>
      <trkpt lat="48.77377" lon="1.85581">
        <ele>129</ele>
        <time>2015-11-01T13:29:46Z</time>
      </trkpt>
      <trkpt lat="48.77392" lon="1.85549">
        <ele>127</ele>
        <time>2015-11-01T13:30:08Z</time>
      </trkpt>
      <trkpt lat="48.77396" lon="1.85545">
        <ele>125</ele>
        <time>2015-11-01T13:30:17Z</time>
      </trkpt>
      <trkpt lat="48.77395" lon="1.85538">
        <ele>124</ele>
        <time>2015-11-01T13:30:22Z</time>
      </trkpt>
      <trkpt lat="48.77389" lon="1.85531">
        <ele>123</ele>
        <time>2015-11-01T13:30:29Z</time>
      </trkpt>
      <trkpt lat="48.77385" lon="1.85528">
        <ele>123</ele>
        <time>2015-11-01T13:30:33Z</time>
      </trkpt>
      <trkpt lat="48.77379" lon="1.85518">
        <ele>123</ele>
        <time>2015-11-01T13:30:39Z</time>
      </trkpt>
      <trkpt lat="48.77352" lon="1.85504">
        <ele>124</ele>
        <time>2015-11-01T13:31:01Z</time>
      </trkpt>
      <trkpt lat="48.7735" lon="1.85498">
        <ele>124</ele>
        <time>2015-11-01T13:31:07Z</time>
      </trkpt>
      <trkpt lat="48.77348" lon="1.8549">
        <ele>123</ele>
        <time>2015-11-01T13:31:12Z</time>
      </trkpt>
      <trkpt lat="48.77344" lon="1.85489">
        <ele>123</ele>
        <time>2015-11-01T13:31:14Z</time>
      </trkpt>
      <trkpt lat="48.77339" lon="1.85486">
        <ele>122</ele>
        <time>2015-11-01T13:31:19Z</time>
      </trkpt>
      <trkpt lat="48.77328" lon="1.85481">
        <ele>118</ele>
        <time>2015-11-01T13:31:32Z</time>
      </trkpt>
      <trkpt lat="48.77303" lon="1.85466">
        <ele>116</ele>
        <time>2015-11-01T13:31:51Z</time>
      </trkpt>
      <trkpt lat="48.77265" lon="1.85432">
        <ele>116</ele>
        <time>2015-11-01T13:32:27Z</time>
      </trkpt>
      <trkpt lat="48.77226" lon="1.85415">
        <ele>117</ele>
        <time>2015-11-01T13:33:02Z</time>
      </trkpt>
      <trkpt lat="48.77222" lon="1.85411">
        <ele>117</ele>
        <time>2015-11-01T13:33:06Z</time>
      </trkpt>
      <trkpt lat="48.77191" lon="1.85372">
        <ele>117</ele>
        <time>2015-11-01T13:33:37Z</time>
      </trkpt>
      <trkpt lat="48.77182" lon="1.85361">
        <ele>117</ele>
        <time>2015-11-01T13:33:48Z</time>
      </trkpt>
      <trkpt lat="48.77177" lon="1.85361">
        <ele>117</ele>
        <time>2015-11-01T13:33:50Z</time>
      </trkpt>
      <trkpt lat="48.77138" lon="1.8534">
        <ele>119</ele>
        <time>2015-11-01T13:34:24Z</time>
      </trkpt>
      <trkpt lat="48.77134" lon="1.85338">
        <ele>119</ele>
        <time>2015-11-01T13:34:26Z</time>
      </trkpt>
      <trkpt lat="48.7712" lon="1.85336">
        <ele>119</ele>
        <time>2015-11-01T13:34:35Z</time>
      </trkpt>
      <trkpt lat="48.77116" lon="1.85333">
        <ele>120</ele>
        <time>2015-11-01T13:34:42Z</time>
      </trkpt>
      <trkpt lat="48.77106" lon="1.85329">
        <ele>120</ele>
        <time>2015-11-01T13:34:50Z</time>
      </trkpt>
      <trkpt lat="48.77084" lon="1.85317">
        <ele>120</ele>
        <time>2015-11-01T13:35:03Z</time>
      </trkpt>
      <trkpt lat="48.77056" lon="1.85299">
        <ele>117</ele>
        <time>2015-11-01T13:35:40Z</time>
      </trkpt>
      <trkpt lat="48.77039" lon="1.85295">
        <ele>115</ele>
        <time>2015-11-01T13:35:51Z</time>
      </trkpt>
      <trkpt lat="48.77033" lon="1.85283">
        <ele>115</ele>
        <time>2015-11-01T13:35:59Z</time>
      </trkpt>
      <trkpt lat="48.77028" lon="1.85281">
        <ele>114</ele>
        <time>2015-11-01T13:36:39Z</time>
      </trkpt>
      <trkpt lat="48.77023" lon="1.8528">
        <ele>114</ele>
        <time>2015-11-01T13:36:42Z</time>
      </trkpt>
      <trkpt lat="48.77021" lon="1.85273">
        <ele>114</ele>
        <time>2015-11-01T13:36:54Z</time>
      </trkpt>
      <trkpt lat="48.77024" lon="1.85266">
        <ele>114</ele>
        <time>2015-11-01T13:36:58Z</time>
      </trkpt>
      <trkpt lat="48.77038" lon="1.85246">
        <ele>113</ele>
        <time>2015-11-01T13:37:17Z</time>
      </trkpt>
      <trkpt lat="48.7704" lon="1.85244">
        <ele>113</ele>
        <time>2015-11-01T13:37:59Z</time>
      </trkpt>
      <trkpt lat="48.77038" lon="1.85238">
        <ele>113</ele>
        <time>2015-11-01T13:38:13Z</time>
      </trkpt>
      <trkpt lat="48.77036" lon="1.85238">
        <ele>113</ele>
        <time>2015-11-01T13:38:19Z</time>
      </trkpt>
      <trkpt lat="48.77033" lon="1.85242">
        <ele>114</ele>
        <time>2015-11-01T13:38:52Z</time>
      </trkpt>
      <trkpt lat="48.77032" lon="1.8525">
        <ele>114</ele>
        <time>2015-11-01T13:38:59Z</time>
      </trkpt>
      <trkpt lat="48.77029" lon="1.85251">
        <ele>114</ele>
        <time>2015-11-01T13:39:01Z</time>
      </trkpt>
      <trkpt lat="48.77027" lon="1.85254">
        <ele>114</ele>
        <time>2015-11-01T13:39:08Z</time>
      </trkpt>
      <trkpt lat="48.77023" lon="1.85255">
        <ele>114</ele>
        <time>2015-11-01T13:39:22Z</time>
      </trkpt>
      <trkpt lat="48.77013" lon="1.85256">
        <ele>114</ele>
        <time>2015-11-01T13:39:29Z</time>
      </trkpt>
      <trkpt lat="48.76992" lon="1.85264">
        <ele>114</ele>
        <time>2015-11-01T13:39:46Z</time>
      </trkpt>
      <trkpt lat="48.76987" lon="1.85262">
        <ele>114</ele>
        <time>2015-11-01T13:39:51Z</time>
      </trkpt>
      <trkpt lat="48.76983" lon="1.85265">
        <ele>114</ele>
        <time>2015-11-01T13:39:54Z</time>
      </trkpt>
      <trkpt lat="48.76973" lon="1.85269">
        <ele>114</ele>
        <time>2015-11-01T13:39:58Z</time>
      </trkpt>
      <trkpt lat="48.76964" lon="1.85265">
        <ele>113</ele>
        <time>2015-11-01T13:40:10Z</time>
      </trkpt>
      <trkpt lat="48.7696" lon="1.8527">
        <ele>113</ele>
        <time>2015-11-01T13:40:12Z</time>
      </trkpt>
      <trkpt lat="48.76955" lon="1.8527">
        <ele>113</ele>
        <time>2015-11-01T13:40:16Z</time>
      </trkpt>
      <trkpt lat="48.76938" lon="1.85281">
        <ele>111</ele>
        <time>2015-11-01T13:40:30Z</time>
      </trkpt>
      <trkpt lat="48.76931" lon="1.8528">
        <ele>110</ele>
        <time>2015-11-01T13:40:37Z</time>
      </trkpt>
      <trkpt lat="48.76927" lon="1.85287">
        <ele>110</ele>
        <time>2015-11-01T13:40:41Z</time>
      </trkpt>
      <trkpt lat="48.76917" lon="1.85291">
        <ele>109</ele>
        <time>2015-11-01T13:40:49Z</time>
      </trkpt>
      <trkpt lat="48.76911" lon="1.85289">
        <ele>108</ele>
        <time>2015-11-01T13:40:54Z</time>
      </trkpt>
      <trkpt lat="48.76893" lon="1.85294">
        <ele>107</ele>
        <time>2015-11-01T13:41:08Z</time>
      </trkpt>
      <trkpt lat="48.76889" lon="1.85299">
        <ele>107</ele>
        <time>2015-11-01T13:41:14Z</time>
      </trkpt>
      <trkpt lat="48.76867" lon="1.85309">
        <ele>105</ele>
        <time>2015-11-01T13:41:36Z</time>
      </trkpt>
      <trkpt lat="48.76843" lon="1.85299">
        <ele>104</ele>
        <time>2015-11-01T13:41:58Z</time>
      </trkpt>
      <trkpt lat="48.76838" lon="1.85287">
        <ele>103</ele>
        <time>2015-11-01T13:42:07Z</time>
      </trkpt>
      <trkpt lat="48.76835" lon="1.85277">
        <ele>102</ele>
        <time>2015-11-01T13:42:13Z</time>
      </trkpt>
      <trkpt lat="48.76831" lon="1.85271">
        <ele>102</ele>
        <time>2015-11-01T13:42:17Z</time>
      </trkpt>
      <trkpt lat="48.7682" lon="1.85266">
        <ele>101</ele>
        <time>2015-11-01T13:42:27Z</time>
      </trkpt>
      <trkpt lat="48.76804" lon="1.85269">
        <ele>100</ele>
        <time>2015-11-01T13:42:36Z</time>
      </trkpt>
      <trkpt lat="48.76797" lon="1.85274">
        <ele>100</ele>
        <time>2015-11-01T13:42:39Z</time>
      </trkpt>
      <trkpt lat="48.76792" lon="1.85279">
        <ele>99</ele>
        <time>2015-11-01T13:42:47Z</time>
      </trkpt>
      <trkpt lat="48.76787" lon="1.85279">
        <ele>99</ele>
        <time>2015-11-01T13:42:51Z</time>
      </trkpt>
      <trkpt lat="48.76775" lon="1.85276">
        <ele>98</ele>
        <time>2015-11-01T13:43:02Z</time>
      </trkpt>
      <trkpt lat="48.76732" lon="1.85274">
        <ele>96</ele>
        <time>2015-11-01T13:43:36Z</time>
      </trkpt>
      <trkpt lat="48.76699" lon="1.85272">
        <ele>94</ele>
        <time>2015-11-01T13:44:07Z</time>
      </trkpt>
      <trkpt lat="48.76679" lon="1.8528">
        <ele>92</ele>
        <time>2015-11-01T13:44:23Z</time>
      </trkpt>
      <trkpt lat="48.7667" lon="1.85276">
        <ele>92</ele>
        <time>2015-11-01T13:44:30Z</time>
      </trkpt>
      <trkpt lat="48.76633" lon="1.85276">
        <ele>92</ele>
        <time>2015-11-01T13:45:01Z</time>
      </trkpt>
      <trkpt lat="48.76596" lon="1.85281">
        <ele>92</ele>
        <time>2015-11-01T13:45:32Z</time>
      </trkpt>
      <trkpt lat="48.76591" lon="1.8528">
        <ele>92</ele>
        <time>2015-11-01T13:45:38Z</time>
      </trkpt>
      <trkpt lat="48.76556" lon="1.85277">
        <ele>92</ele>
        <time>2015-11-01T13:46:07Z</time>
      </trkpt>
      <trkpt lat="48.7652" lon="1.85256">
        <ele>96</ele>
        <time>2015-11-01T13:46:41Z</time>
      </trkpt>
      <trkpt lat="48.76486" lon="1.85232">
        <ele>97</ele>
        <time>2015-11-01T13:47:12Z</time>
      </trkpt>
      <trkpt lat="48.76473" lon="1.85222">
        <ele>97</ele>
        <time>2015-11-01T13:47:25Z</time>
      </trkpt>
      <trkpt lat="48.76468" lon="1.85216">
        <ele>97</ele>
        <time>2015-11-01T13:47:50Z</time>
      </trkpt>
      <trkpt lat="48.76437" lon="1.85196">
        <ele>99</ele>
        <time>2015-11-01T13:48:21Z</time>
      </trkpt>
      <trkpt lat="48.76408" lon="1.85168">
        <ele>101</ele>
        <time>2015-11-01T13:48:52Z</time>
      </trkpt>
      <trkpt lat="48.76378" lon="1.85138">
        <ele>102</ele>
        <time>2015-11-01T13:49:24Z</time>
      </trkpt>
      <trkpt lat="48.76374" lon="1.85136">
        <ele>102</ele>
        <time>2015-11-01T13:49:27Z</time>
      </trkpt>
      <trkpt lat="48.76338" lon="1.85106">
        <ele>104</ele>
        <time>2015-11-01T13:50:02Z</time>
      </trkpt>
      <trkpt lat="48.76301" lon="1.85084">
        <ele>106</ele>
        <time>2015-11-01T13:50:37Z</time>
      </trkpt>
      <trkpt lat="48.76269" lon="1.85058">
        <ele>107</ele>
        <time>2015-11-01T13:51:08Z</time>
      </trkpt>
      <trkpt lat="48.76239" lon="1.85033">
        <ele>108</ele>
        <time>2015-11-01T13:51:38Z</time>
      </trkpt>
      <trkpt lat="48.76211" lon="1.85002">
        <ele>108</ele>
        <time>2015-11-01T13:52:08Z</time>
      </trkpt>
      <trkpt lat="48.76173" lon="1.84976">
        <ele>110</ele>
        <time>2015-11-01T13:52:43Z</time>
      </trkpt>
      <trkpt lat="48.76137" lon="1.8497">
        <ele>111</ele>
        <time>2015-11-01T13:53:15Z</time>
      </trkpt>
      <trkpt lat="48.76096" lon="1.84975">
        <ele>112</ele>
        <time>2015-11-01T13:53:48Z</time>
      </trkpt>
      <trkpt lat="48.76081" lon="1.84978">
        <ele>113</ele>
        <time>2015-11-01T13:54:17Z</time>
      </trkpt>
      <trkpt lat="48.7607" lon="1.84983">
        <ele>113</ele>
        <time>2015-11-01T13:54:28Z</time>
      </trkpt>
      <trkpt lat="48.76025" lon="1.84991">
        <ele>115</ele>
        <time>2015-11-01T13:55:04Z</time>
      </trkpt>
      <trkpt lat="48.76015" lon="1.84996">
        <ele>115</ele>
        <time>2015-11-01T13:55:12Z</time>
      </trkpt>
      <trkpt lat="48.76004" lon="1.84996">
        <ele>115</ele>
        <time>2015-11-01T13:55:23Z</time>
      </trkpt>
      <trkpt lat="48.76" lon="1.85001">
        <ele>115</ele>
        <time>2015-11-01T13:55:27Z</time>
      </trkpt>
      <trkpt lat="48.75995" lon="1.85001">
        <ele>115</ele>
        <time>2015-11-01T13:55:31Z</time>
      </trkpt>
      <trkpt lat="48.75991" lon="1.84999">
        <ele>115</ele>
        <time>2015-11-01T13:55:34Z</time>
      </trkpt>
      <trkpt lat="48.7598" lon="1.85002">
        <ele>115</ele>
        <time>2015-11-01T13:55:48Z</time>
      </trkpt>
      <trkpt lat="48.75975" lon="1.85008">
        <ele>115</ele>
        <time>2015-11-01T13:55:56Z</time>
      </trkpt>
      <trkpt lat="48.7597" lon="1.8501">
        <ele>115</ele>
        <time>2015-11-01T13:56:01Z</time>
      </trkpt>
      <trkpt lat="48.75965" lon="1.85011">
        <ele>116</ele>
        <time>2015-11-01T13:56:08Z</time>
      </trkpt>
      <trkpt lat="48.75953" lon="1.85022">
        <ele>116</ele>
        <time>2015-11-01T13:56:28Z</time>
      </trkpt>
      <trkpt lat="48.75907" lon="1.85017">
        <ele>121</ele>
        <time>2015-11-01T14:02:16Z</time>
      </trkpt>
      <trkpt lat="48.75873" lon="1.85002">
        <ele>121</ele>
        <time>2015-11-01T14:02:48Z</time>
      </trkpt>
      <trkpt lat="48.75856" lon="1.85001">
        <ele>122</ele>
        <time>2015-11-01T14:03:11Z</time>
      </trkpt>
      <trkpt lat="48.75852" lon="1.84998">
        <ele>122</ele>
        <time>2015-11-01T14:03:15Z</time>
      </trkpt>
      <trkpt lat="48.75851" lon="1.84991">
        <ele>122</ele>
        <time>2015-11-01T14:03:20Z</time>
      </trkpt>
      <trkpt lat="48.75828" lon="1.84954">
        <ele>122</ele>
        <time>2015-11-01T14:03:50Z</time>
      </trkpt>
      <trkpt lat="48.75807" lon="1.849">
        <ele>121</ele>
        <time>2015-11-01T14:04:23Z</time>
      </trkpt>
      <trkpt lat="48.75799" lon="1.84889">
        <ele>120</ele>
        <time>2015-11-01T14:04:32Z</time>
      </trkpt>
      <trkpt lat="48.75783" lon="1.84845">
        <ele>121</ele>
        <time>2015-11-01T14:05:04Z</time>
      </trkpt>
      <trkpt lat="48.7577" lon="1.84805">
        <ele>121</ele>
        <time>2015-11-01T14:05:47Z</time>
      </trkpt>
      <trkpt lat="48.75744" lon="1.8476">
        <ele>121</ele>
        <time>2015-11-01T14:06:20Z</time>
      </trkpt>
      <trkpt lat="48.75721" lon="1.84702">
        <ele>121</ele>
        <time>2015-11-01T14:06:52Z</time>
      </trkpt>
      <trkpt lat="48.75701" lon="1.84648">
        <ele>123</ele>
        <time>2015-11-01T14:07:26Z</time>
      </trkpt>
      <trkpt lat="48.75685" lon="1.84618">
        <ele>123</ele>
        <time>2015-11-01T14:07:46Z</time>
      </trkpt>
      <trkpt lat="48.7566" lon="1.8456">
        <ele>125</ele>
        <time>2015-11-01T14:08:18Z</time>
      </trkpt>
      <trkpt lat="48.75641" lon="1.84522">
        <ele>125</ele>
        <time>2015-11-01T14:08:44Z</time>
      </trkpt>
      <trkpt lat="48.75617" lon="1.84461">
        <ele>127</ele>
        <time>2015-11-01T14:09:17Z</time>
      </trkpt>
      <trkpt lat="48.75611" lon="1.84441">
        <ele>128</ele>
        <time>2015-11-01T14:09:31Z</time>
      </trkpt>
      <trkpt lat="48.75597" lon="1.84392">
        <ele>126</ele>
        <time>2015-11-01T14:10:03Z</time>
      </trkpt>
      <trkpt lat="48.7559" lon="1.84363">
        <ele>126</ele>
        <time>2015-11-01T14:10:19Z</time>
      </trkpt>
      <trkpt lat="48.75588" lon="1.84356">
        <ele>125</ele>
        <time>2015-11-01T14:10:27Z</time>
      </trkpt>
      <trkpt lat="48.7559" lon="1.84282">
        <ele>122</ele>
        <time>2015-11-01T14:10:59Z</time>
      </trkpt>
      <trkpt lat="48.75603" lon="1.84224">
        <ele>121</ele>
        <time>2015-11-01T14:11:32Z</time>
      </trkpt>
      <trkpt lat="48.75603" lon="1.84217">
        <ele>121</ele>
        <time>2015-11-01T14:11:35Z</time>
      </trkpt>
      <trkpt lat="48.75617" lon="1.84161">
        <ele>121</ele>
        <time>2015-11-01T14:12:06Z</time>
      </trkpt>
      <trkpt lat="48.7562" lon="1.84098">
        <ele>121</ele>
        <time>2015-11-01T14:12:38Z</time>
      </trkpt>
      <trkpt lat="48.75618" lon="1.84032">
        <ele>121</ele>
        <time>2015-11-01T14:13:11Z</time>
      </trkpt>
      <trkpt lat="48.75617" lon="1.84007">
        <ele>122</ele>
        <time>2015-11-01T14:13:24Z</time>
      </trkpt>
      <trkpt lat="48.75612" lon="1.83971">
        <ele>125</ele>
        <time>2015-11-01T14:13:45Z</time>
      </trkpt>
      <trkpt lat="48.75612" lon="1.83953">
        <ele>125</ele>
        <time>2015-11-01T14:13:53Z</time>
      </trkpt>
      <trkpt lat="48.75621" lon="1.83932">
        <ele>125</ele>
        <time>2015-11-01T14:14:07Z</time>
      </trkpt>
      <trkpt lat="48.75643" lon="1.8392">
        <ele>123</ele>
        <time>2015-11-01T14:14:32Z</time>
      </trkpt>
      <trkpt lat="48.7565" lon="1.83924">
        <ele>122</ele>
        <time>2015-11-01T14:14:38Z</time>
      </trkpt>
      <trkpt lat="48.75659" lon="1.8392">
        <ele>121</ele>
        <time>2015-11-01T14:14:49Z</time>
      </trkpt>
      <trkpt lat="48.75661" lon="1.83913">
        <ele>121</ele>
        <time>2015-11-01T14:15:10Z</time>
      </trkpt>
      <trkpt lat="48.75663" lon="1.83899">
        <ele>121</ele>
        <time>2015-11-01T14:15:34Z</time>
      </trkpt>
      <trkpt lat="48.75659" lon="1.83894">
        <ele>121</ele>
        <time>2015-11-01T14:15:38Z</time>
      </trkpt>
      <trkpt lat="48.75636" lon="1.83853">
        <ele>121</ele>
        <time>2015-11-01T14:16:07Z</time>
      </trkpt>
      <trkpt lat="48.75639" lon="1.83847">
        <ele>121</ele>
        <time>2015-11-01T14:16:11Z</time>
      </trkpt>
      <trkpt lat="48.75651" lon="1.8383">
        <ele>120</ele>
        <time>2015-11-01T14:16:23Z</time>
      </trkpt>
      <trkpt lat="48.75649" lon="1.83822">
        <ele>120</ele>
        <time>2015-11-01T14:16:27Z</time>
      </trkpt>
      <trkpt lat="48.75646" lon="1.83817">
        <ele>120</ele>
        <time>2015-11-01T14:16:31Z</time>
      </trkpt>
      <trkpt lat="48.7564" lon="1.83795">
        <ele>119</ele>
        <time>2015-11-01T14:16:43Z</time>
      </trkpt>
      <trkpt lat="48.75638" lon="1.83787">
        <ele>119</ele>
        <time>2015-11-01T14:16:47Z</time>
      </trkpt>
      <trkpt lat="48.7564" lon="1.83771">
        <ele>117</ele>
        <time>2015-11-01T14:16:56Z</time>
      </trkpt>
      <trkpt lat="48.75637" lon="1.83749">
        <ele>114</ele>
        <time>2015-11-01T14:17:10Z</time>
      </trkpt>
      <trkpt lat="48.75637" lon="1.83741">
        <ele>114</ele>
        <time>2015-11-01T14:17:14Z</time>
      </trkpt>
      <trkpt lat="48.7564" lon="1.83735">
        <ele>114</ele>
        <time>2015-11-01T14:17:18Z</time>
      </trkpt>
      <trkpt lat="48.75649" lon="1.83732">
        <ele>113</ele>
        <time>2015-11-01T14:17:28Z</time>
      </trkpt>
      <trkpt lat="48.75679" lon="1.83723">
        <ele>112</ele>
        <time>2015-11-01T14:18:00Z</time>
      </trkpt>
      <trkpt lat="48.75708" lon="1.83699">
        <ele>111</ele>
        <time>2015-11-01T14:18:26Z</time>
      </trkpt>
      <trkpt lat="48.75708" lon="1.83692">
        <ele>111</ele>
        <time>2015-11-01T14:18:33Z</time>
      </trkpt>
      <trkpt lat="48.75707" lon="1.83684">
        <ele>111</ele>
        <time>2015-11-01T14:18:40Z</time>
      </trkpt>
      <trkpt lat="48.75696" lon="1.83656">
        <ele>111</ele>
        <time>2015-11-01T14:19:19Z</time>
      </trkpt>
      <trkpt lat="48.75692" lon="1.83659">
        <ele>111</ele>
        <time>2015-11-01T14:19:26Z</time>
      </trkpt>
      <trkpt lat="48.75687" lon="1.83663">
        <ele>111</ele>
        <time>2015-11-01T14:19:32Z</time>
      </trkpt>
      <trkpt lat="48.75682" lon="1.83662">
        <ele>111</ele>
        <time>2015-11-01T14:19:38Z</time>
      </trkpt>
      <trkpt lat="48.7568" lon="1.83657">
        <ele>111</ele>
        <time>2015-11-01T14:19:42Z</time>
      </trkpt>
      <trkpt lat="48.75661" lon="1.83604">
        <ele>111</ele>
        <time>2015-11-01T14:20:16Z</time>
      </trkpt>
      <trkpt lat="48.75656" lon="1.83603">
        <ele>111</ele>
        <time>2015-11-01T14:20:23Z</time>
      </trkpt>
      <trkpt lat="48.75631" lon="1.83614">
        <ele>112</ele>
        <time>2015-11-01T14:20:42Z</time>
      </trkpt>
      <trkpt lat="48.75626" lon="1.83609">
        <ele>112</ele>
        <time>2015-11-01T14:20:46Z</time>
      </trkpt>
      <trkpt lat="48.75621" lon="1.83599">
        <ele>112</ele>
        <time>2015-11-01T14:20:52Z</time>
      </trkpt>
      <trkpt lat="48.75614" lon="1.83565">
        <ele>111</ele>
        <time>2015-11-01T14:21:12Z</time>
      </trkpt>
      <trkpt lat="48.75593" lon="1.83525">
        <ele>112</ele>
        <time>2015-11-01T14:21:42Z</time>
      </trkpt>
      <trkpt lat="48.7556" lon="1.83493">
        <ele>114</ele>
        <time>2015-11-01T14:22:12Z</time>
      </trkpt>
      <trkpt lat="48.75557" lon="1.8349">
        <ele>114</ele>
        <time>2015-11-01T14:22:14Z</time>
      </trkpt>
      <trkpt lat="48.75551" lon="1.83475">
        <ele>114</ele>
        <time>2015-11-01T14:22:22Z</time>
      </trkpt>
      <trkpt lat="48.75539" lon="1.83417">
        <ele>114</ele>
        <time>2015-11-01T14:22:52Z</time>
      </trkpt>
      <trkpt lat="48.75524" lon="1.83396">
        <ele>114</ele>
        <time>2015-11-01T14:23:12Z</time>
      </trkpt>
      <trkpt lat="48.75518" lon="1.83396">
        <ele>114</ele>
        <time>2015-11-01T14:23:17Z</time>
      </trkpt>
      <trkpt lat="48.75513" lon="1.83398">
        <ele>114</ele>
        <time>2015-11-01T14:23:26Z</time>
      </trkpt>
      <trkpt lat="48.75508" lon="1.83397">
        <ele>115</ele>
        <time>2015-11-01T14:23:31Z</time>
      </trkpt>
      <trkpt lat="48.75503" lon="1.834">
        <ele>115</ele>
        <time>2015-11-01T14:23:36Z</time>
      </trkpt>
      <trkpt lat="48.75501" lon="1.83403">
        <ele>116</ele>
        <time>2015-11-01T14:23:43Z</time>
      </trkpt>
      <trkpt lat="48.75498" lon="1.83409">
        <ele>116</ele>
        <time>2015-11-01T14:23:53Z</time>
      </trkpt>
      <trkpt lat="48.75472" lon="1.83447">
        <ele>117</ele>
        <time>2015-11-01T14:24:25Z</time>
      </trkpt>
      <trkpt lat="48.75464" lon="1.83457">
        <ele>118</ele>
        <time>2015-11-01T14:24:34Z</time>
      </trkpt>
      <trkpt lat="48.75447" lon="1.83461">
        <ele>120</ele>
        <time>2015-11-01T14:25:05Z</time>
      </trkpt>
      <trkpt lat="48.75442" lon="1.83464">
        <ele>120</ele>
        <time>2015-11-01T14:25:09Z</time>
      </trkpt>
      <trkpt lat="48.75437" lon="1.83474">
        <ele>121</ele>
        <time>2015-11-01T14:25:23Z</time>
      </trkpt>
      <trkpt lat="48.75424" lon="1.83491">
        <ele>121</ele>
        <time>2015-11-01T14:25:29Z</time>
      </trkpt>
      <trkpt lat="48.7542" lon="1.83493">
        <ele>122</ele>
        <time>2015-11-01T14:25:34Z</time>
      </trkpt>
      <trkpt lat="48.75411" lon="1.83501">
        <ele>122</ele>
        <time>2015-11-01T14:25:42Z</time>
      </trkpt>
      <trkpt lat="48.75409" lon="1.83507">
        <ele>122</ele>
        <time>2015-11-01T14:25:46Z</time>
      </trkpt>
      <trkpt lat="48.75407" lon="1.8351">
        <ele>123</ele>
        <time>2015-11-01T14:25:52Z</time>
      </trkpt>
      <trkpt lat="48.75404" lon="1.83515">
        <ele>123</ele>
        <time>2015-11-01T14:25:54Z</time>
      </trkpt>
      <trkpt lat="48.754" lon="1.83518">
        <ele>124</ele>
        <time>2015-11-01T14:26:03Z</time>
      </trkpt>
      <trkpt lat="48.75396" lon="1.83519">
        <ele>124</ele>
        <time>2015-11-01T14:26:13Z</time>
      </trkpt>
      <trkpt lat="48.75392" lon="1.83523">
        <ele>124</ele>
        <time>2015-11-01T14:26:15Z</time>
      </trkpt>
      <trkpt lat="48.75389" lon="1.83526">
        <ele>125</ele>
        <time>2015-11-01T14:26:23Z</time>
      </trkpt>
      <trkpt lat="48.75347" lon="1.83559">
        <ele>129</ele>
        <time>2015-11-01T14:26:54Z</time>
      </trkpt>
      <trkpt lat="48.75341" lon="1.83565">
        <ele>129</ele>
        <time>2015-11-01T14:27:00Z</time>
      </trkpt>
      <trkpt lat="48.75336" lon="1.83566">
        <ele>130</ele>
        <time>2015-11-01T14:27:04Z</time>
      </trkpt>
      <trkpt lat="48.75326" lon="1.8357">
        <ele>132</ele>
        <time>2015-11-01T14:27:21Z</time>
      </trkpt>
      <trkpt lat="48.75321" lon="1.83582">
        <ele>136</ele>
        <time>2015-11-01T14:27:40Z</time>
      </trkpt>
      <trkpt lat="48.75306" lon="1.83594">
        <ele>139</ele>
        <time>2015-11-01T14:27:59Z</time>
      </trkpt>
      <trkpt lat="48.75301" lon="1.83594">
        <ele>139</ele>
        <time>2015-11-01T14:28:01Z</time>
      </trkpt>
      <trkpt lat="48.75297" lon="1.83599">
        <ele>140</ele>
        <time>2015-11-01T14:28:05Z</time>
      </trkpt>
      <trkpt lat="48.75294" lon="1.83605">
        <ele>140</ele>
        <time>2015-11-01T14:28:08Z</time>
      </trkpt>
      <trkpt lat="48.75256" lon="1.83638">
        <ele>143</ele>
        <time>2015-11-01T14:28:39Z</time>
      </trkpt>
      <trkpt lat="48.75229" lon="1.83657">
        <ele>147</ele>
        <time>2015-11-01T14:29:10Z</time>
      </trkpt>
      <trkpt lat="48.75207" lon="1.83682">
        <ele>152</ele>
        <time>2015-11-01T14:29:41Z</time>
      </trkpt>
      <trkpt lat="48.75185" lon="1.83695">
        <ele>154</ele>
        <time>2015-11-01T14:29:55Z</time>
      </trkpt>
      <trkpt lat="48.75175" lon="1.83712">
        <ele>156</ele>
        <time>2015-11-01T14:30:07Z</time>
      </trkpt>
      <trkpt lat="48.75173" lon="1.83714">
        <ele>156</ele>
        <time>2015-11-01T14:30:19Z</time>
      </trkpt>
      <trkpt lat="48.75169" lon="1.83712">
        <ele>157</ele>
        <time>2015-11-01T14:30:45Z</time>
      </trkpt>
      <trkpt lat="48.75158" lon="1.83708">
        <ele>157</ele>
        <time>2015-11-01T14:31:06Z</time>
      </trkpt>
      <trkpt lat="48.7515" lon="1.83701">
        <ele>158</ele>
        <time>2015-11-01T14:31:16Z</time>
      </trkpt>
      <trkpt lat="48.75138" lon="1.83672">
        <ele>159</ele>
        <time>2015-11-01T14:31:36Z</time>
      </trkpt>
      <trkpt lat="48.75134" lon="1.83671">
        <ele>160</ele>
        <time>2015-11-01T14:31:41Z</time>
      </trkpt>
      <trkpt lat="48.75132" lon="1.83664">
        <ele>160</ele>
        <time>2015-11-01T14:31:45Z</time>
      </trkpt>
      <trkpt lat="48.75128" lon="1.83649">
        <ele>160</ele>
        <time>2015-11-01T14:31:53Z</time>
      </trkpt>
      <trkpt lat="48.75128" lon="1.83601">
        <ele>161</ele>
        <time>2015-11-01T14:32:17Z</time>
      </trkpt>
      <trkpt lat="48.75124" lon="1.83596">
        <ele>161</ele>
        <time>2015-11-01T14:32:20Z</time>
      </trkpt>
      <trkpt lat="48.75126" lon="1.8359">
        <ele>161</ele>
        <time>2015-11-01T14:32:27Z</time>
      </trkpt>
      <trkpt lat="48.75129" lon="1.83581">
        <ele>162</ele>
        <time>2015-11-01T14:34:13Z</time>
      </trkpt>
      <trkpt lat="48.75133" lon="1.83578">
        <ele>162</ele>
        <time>2015-11-01T14:34:19Z</time>
      </trkpt>
      <trkpt lat="48.75135" lon="1.83576">
        <ele>161</ele>
        <time>2015-11-01T14:34:25Z</time>
      </trkpt>
      <trkpt lat="48.7514" lon="1.83577">
        <ele>161</ele>
        <time>2015-11-01T14:34:30Z</time>
      </trkpt>
      <trkpt lat="48.75145" lon="1.83576">
        <ele>160</ele>
        <time>2015-11-01T14:34:35Z</time>
      </trkpt>
      <trkpt lat="48.7515" lon="1.8358">
        <ele>160</ele>
        <time>2015-11-01T14:34:44Z</time>
      </trkpt>
      <trkpt lat="48.75174" lon="1.83579">
        <ele>158</ele>
        <time>2015-11-01T14:35:14Z</time>
      </trkpt>
      <trkpt lat="48.75217" lon="1.83579">
        <ele>155</ele>
        <time>2015-11-01T14:35:54Z</time>
      </trkpt>
      <trkpt lat="48.75226" lon="1.8358">
        <ele>153</ele>
        <time>2015-11-01T14:36:08Z</time>
      </trkpt>
      <trkpt lat="48.75231" lon="1.83582">
        <ele>153</ele>
        <time>2015-11-01T14:36:12Z</time>
      </trkpt>
      <trkpt lat="48.7524" lon="1.83578">
        <ele>151</ele>
        <time>2015-11-01T14:36:24Z</time>
      </trkpt>
      <trkpt lat="48.75264" lon="1.83583">
        <ele>146</ele>
        <time>2015-11-01T14:36:57Z</time>
      </trkpt>
      <trkpt lat="48.75304" lon="1.8358">
        <ele>138</ele>
        <time>2015-11-01T14:37:36Z</time>
      </trkpt>
      <trkpt lat="48.75313" lon="1.83571">
        <ele>134</ele>
        <time>2015-11-01T14:37:51Z</time>
      </trkpt>
      <trkpt lat="48.75355" lon="1.83536">
        <ele>128</ele>
        <time>2015-11-01T14:38:25Z</time>
      </trkpt>
      <trkpt lat="48.75389" lon="1.83505">
        <ele>124</ele>
        <time>2015-11-01T14:38:57Z</time>
      </trkpt>
      <trkpt lat="48.75397" lon="1.83497">
        <ele>123</ele>
        <time>2015-11-01T14:39:03Z</time>
      </trkpt>
      <trkpt lat="48.75444" lon="1.83475">
        <ele>119</ele>
        <time>2015-11-01T14:39:34Z</time>
      </trkpt>
      <trkpt lat="48.75448" lon="1.83469">
        <ele>119</ele>
        <time>2015-11-01T14:39:39Z</time>
      </trkpt>
      <trkpt lat="48.75451" lon="1.83462">
        <ele>119</ele>
        <time>2015-11-01T14:39:42Z</time>
      </trkpt>
      <trkpt lat="48.75465" lon="1.83451">
        <ele>118</ele>
        <time>2015-11-01T14:39:56Z</time>
      </trkpt>
      <trkpt lat="48.7547" lon="1.8345">
        <ele>118</ele>
        <time>2015-11-01T14:39:59Z</time>
      </trkpt>
      <trkpt lat="48.75488" lon="1.83439">
        <ele>116</ele>
        <time>2015-11-01T14:40:15Z</time>
      </trkpt>
      <trkpt lat="48.75493" lon="1.83441">
        <ele>116</ele>
        <time>2015-11-01T14:40:21Z</time>
      </trkpt>
      <trkpt lat="48.75515" lon="1.83443">
        <ele>115</ele>
        <time>2015-11-01T14:40:35Z</time>
      </trkpt>
      <trkpt lat="48.75555" lon="1.83471">
        <ele>112</ele>
        <time>2015-11-01T14:41:07Z</time>
      </trkpt>
      <trkpt lat="48.75579" lon="1.83488">
        <ele>111</ele>
        <time>2015-11-01T14:41:30Z</time>
      </trkpt>
      <trkpt lat="48.75582" lon="1.83493">
        <ele>112</ele>
        <time>2015-11-01T14:41:55Z</time>
      </trkpt>
      <trkpt lat="48.75616" lon="1.83539">
        <ele>112</ele>
        <time>2015-11-01T14:42:28Z</time>
      </trkpt>
      <trkpt lat="48.75625" lon="1.83572">
        <ele>111</ele>
        <time>2015-11-01T14:42:41Z</time>
      </trkpt>
      <trkpt lat="48.75624" lon="1.83578">
        <ele>111</ele>
        <time>2015-11-01T14:42:45Z</time>
      </trkpt>
      <trkpt lat="48.7563" lon="1.8362">
        <ele>112</ele>
        <time>2015-11-01T14:43:08Z</time>
      </trkpt>
      <trkpt lat="48.75624" lon="1.83632">
        <ele>112</ele>
        <time>2015-11-01T14:43:15Z</time>
      </trkpt>
      <trkpt lat="48.75622" lon="1.83678">
        <ele>113</ele>
        <time>2015-11-01T14:43:38Z</time>
      </trkpt>
      <trkpt lat="48.75625" lon="1.837">
        <ele>114</ele>
        <time>2015-11-01T14:43:56Z</time>
      </trkpt>
      <trkpt lat="48.75622" lon="1.8373">
        <ele>114</ele>
        <time>2015-11-01T14:44:11Z</time>
      </trkpt>
      <trkpt lat="48.75616" lon="1.83738">
        <ele>115</ele>
        <time>2015-11-01T14:44:19Z</time>
      </trkpt>
      <trkpt lat="48.75579" lon="1.83768">
        <ele>117</ele>
        <time>2015-11-01T14:44:52Z</time>
      </trkpt>
      <trkpt lat="48.75552" lon="1.83809">
        <ele>120</ele>
        <time>2015-11-01T14:45:25Z</time>
      </trkpt>
      <trkpt lat="48.75538" lon="1.83828">
        <ele>121</ele>
        <time>2015-11-01T14:45:40Z</time>
      </trkpt>
      <trkpt lat="48.75505" lon="1.83846">
        <ele>123</ele>
        <time>2015-11-01T14:46:13Z</time>
      </trkpt>
      <trkpt lat="48.75469" lon="1.83851">
        <ele>124</ele>
        <time>2015-11-01T14:46:43Z</time>
      </trkpt>
      <trkpt lat="48.75454" lon="1.83853">
        <ele>125</ele>
        <time>2015-11-01T14:47:03Z</time>
      </trkpt>
      <trkpt lat="48.75449" lon="1.83847">
        <ele>126</ele>
        <time>2015-11-01T14:48:06Z</time>
      </trkpt>
      <trkpt lat="48.75436" lon="1.8385">
        <ele>126</ele>
        <time>2015-11-01T14:48:39Z</time>
      </trkpt>
      <trkpt lat="48.75415" lon="1.8385">
        <ele>128</ele>
        <time>2015-11-01T14:49:02Z</time>
      </trkpt>
      <trkpt lat="48.7541" lon="1.83855">
        <ele>128</ele>
        <time>2015-11-01T14:49:06Z</time>
      </trkpt>
      <trkpt lat="48.75409" lon="1.83862">
        <ele>128</ele>
        <time>2015-11-01T14:49:11Z</time>
      </trkpt>
      <trkpt lat="48.75408" lon="1.83878">
        <ele>130</ele>
        <time>2015-11-01T14:49:23Z</time>
      </trkpt>
      <trkpt lat="48.7541" lon="1.83884">
        <ele>130</ele>
        <time>2015-11-01T14:49:28Z</time>
      </trkpt>
      <trkpt lat="48.7541" lon="1.83891">
        <ele>131</ele>
        <time>2015-11-01T14:49:33Z</time>
      </trkpt>
      <trkpt lat="48.75423" lon="1.83947">
        <ele>132</ele>
        <time>2015-11-01T14:50:05Z</time>
      </trkpt>
      <trkpt lat="48.75427" lon="1.84004">
        <ele>131</ele>
        <time>2015-11-01T14:50:37Z</time>
      </trkpt>
      <trkpt lat="48.75428" lon="1.84012">
        <ele>131</ele>
        <time>2015-11-01T14:50:42Z</time>
      </trkpt>
      <trkpt lat="48.7543" lon="1.84021">
        <ele>131</ele>
        <time>2015-11-01T14:50:47Z</time>
      </trkpt>
      <trkpt lat="48.75435" lon="1.84045">
        <ele>130</ele>
        <time>2015-11-01T14:51:01Z</time>
      </trkpt>
      <trkpt lat="48.75433" lon="1.84054">
        <ele>130</ele>
        <time>2015-11-01T14:51:07Z</time>
      </trkpt>
      <trkpt lat="48.75408" lon="1.84103">
        <ele>129</ele>
        <time>2015-11-01T14:51:41Z</time>
      </trkpt>
      <trkpt lat="48.75389" lon="1.84146">
        <ele>128</ele>
        <time>2015-11-01T14:52:13Z</time>
      </trkpt>
      <trkpt lat="48.75355" lon="1.84198">
        <ele>128</ele>
        <time>2015-11-01T14:52:44Z</time>
      </trkpt>
      <trkpt lat="48.7534" lon="1.84211">
        <ele>128</ele>
        <time>2015-11-01T14:53:01Z</time>
      </trkpt>
      <trkpt lat="48.75334" lon="1.84211">
        <ele>129</ele>
        <time>2015-11-01T14:53:09Z</time>
      </trkpt>
      <trkpt lat="48.75294" lon="1.84241">
        <ele>131</ele>
        <time>2015-11-01T14:53:48Z</time>
      </trkpt>
      <trkpt lat="48.75288" lon="1.84241">
        <ele>132</ele>
        <time>2015-11-01T14:53:55Z</time>
      </trkpt>
      <trkpt lat="48.75259" lon="1.84253">
        <ele>136</ele>
        <time>2015-11-01T14:54:27Z</time>
      </trkpt>
      <trkpt lat="48.75227" lon="1.84279">
        <ele>140</ele>
        <time>2015-11-01T14:54:58Z</time>
      </trkpt>
      <trkpt lat="48.75223" lon="1.84283">
        <ele>140</ele>
        <time>2015-11-01T14:55:02Z</time>
      </trkpt>
      <trkpt lat="48.75186" lon="1.84289">
        <ele>142</ele>
        <time>2015-11-01T14:55:34Z</time>
      </trkpt>
      <trkpt lat="48.75148" lon="1.84299">
        <ele>144</ele>
        <time>2015-11-01T14:56:07Z</time>
      </trkpt>
      <trkpt lat="48.7511" lon="1.84322">
        <ele>145</ele>
        <time>2015-11-01T14:56:38Z</time>
      </trkpt>
      <trkpt lat="48.75107" lon="1.84329">
        <ele>146</ele>
        <time>2015-11-01T14:56:42Z</time>
      </trkpt>
      <trkpt lat="48.75102" lon="1.84334">
        <ele>146</ele>
        <time>2015-11-01T14:56:49Z</time>
      </trkpt>
      <trkpt lat="48.75097" lon="1.84334">
        <ele>146</ele>
        <time>2015-11-01T14:56:54Z</time>
      </trkpt>
      <trkpt lat="48.75091" lon="1.8433">
        <ele>147</ele>
        <time>2015-11-01T14:57:01Z</time>
      </trkpt>
      <trkpt lat="48.75057" lon="1.84341">
        <ele>150</ele>
        <time>2015-11-01T14:57:29Z</time>
      </trkpt>
      <trkpt lat="48.75021" lon="1.84359">
        <ele>152</ele>
        <time>2015-11-01T14:57:59Z</time>
      </trkpt>
      <trkpt lat="48.75007" lon="1.84362">
        <ele>154</ele>
        <time>2015-11-01T14:58:12Z</time>
      </trkpt>
      <trkpt lat="48.75003" lon="1.84359">
        <ele>154</ele>
        <time>2015-11-01T14:58:16Z</time>
      </trkpt>
      <trkpt lat="48.74998" lon="1.84361">
        <ele>154</ele>
        <time>2015-11-01T14:58:19Z</time>
      </trkpt>
      <trkpt lat="48.7499" lon="1.84369">
        <ele>155</ele>
        <time>2015-11-01T14:58:30Z</time>
      </trkpt>
      <trkpt lat="48.74984" lon="1.84369">
        <ele>156</ele>
        <time>2015-11-01T14:58:36Z</time>
      </trkpt>
      <trkpt lat="48.74946" lon="1.84385">
        <ele>160</ele>
        <time>2015-11-01T14:59:09Z</time>
      </trkpt>
      <trkpt lat="48.74921" lon="1.844">
        <ele>163</ele>
        <time>2015-11-01T14:59:29Z</time>
      </trkpt>
      <trkpt lat="48.74913" lon="1.8442">
        <ele>163</ele>
        <time>2015-11-01T14:59:49Z</time>
      </trkpt>
      <trkpt lat="48.74915" lon="1.84435">
        <ele>163</ele>
        <time>2015-11-01T15:00:00Z</time>
      </trkpt>
      <trkpt lat="48.7491" lon="1.84448">
        <ele>163</ele>
        <time>2015-11-01T15:00:09Z</time>
      </trkpt>
      <trkpt lat="48.74911" lon="1.84472">
        <ele>163</ele>
        <time>2015-11-01T15:00:21Z</time>
      </trkpt>
      <trkpt lat="48.74919" lon="1.84492">
        <ele>164</ele>
        <time>2015-11-01T15:00:41Z</time>
      </trkpt>
      <trkpt lat="48.74917" lon="1.84498">
        <ele>164</ele>
        <time>2015-11-01T15:00:46Z</time>
      </trkpt>
      <trkpt lat="48.7491" lon="1.84509">
        <ele>164</ele>
        <time>2015-11-01T15:01:02Z</time>
      </trkpt>
      <trkpt lat="48.74907" lon="1.84506">
        <ele>164</ele>
        <time>2015-11-01T15:04:00Z</time>
      </trkpt>
      <trkpt lat="48.74905" lon="1.84503">
        <ele>164</ele>
        <time>2015-11-01T15:06:33Z</time>
      </trkpt>
      <trkpt lat="48.74907" lon="1.84551">
        <ele>164</ele>
        <time>2015-11-01T15:08:54Z</time>
      </trkpt>
      <trkpt lat="48.74888" lon="1.84616">
        <ele>165</ele>
        <time>2015-11-01T15:09:25Z</time>
      </trkpt>
      <trkpt lat="48.74855" lon="1.84666">
        <ele>165</ele>
        <time>2015-11-01T15:09:58Z</time>
      </trkpt>
      <trkpt lat="48.74823" lon="1.84696">
        <ele>165</ele>
        <time>2015-11-01T15:10:28Z</time>
      </trkpt>
      <trkpt lat="48.74788" lon="1.84735">
        <ele>164</ele>
        <time>2015-11-01T15:11:01Z</time>
      </trkpt>
      <trkpt lat="48.7475" lon="1.84767">
        <ele>163</ele>
        <time>2015-11-01T15:11:33Z</time>
      </trkpt>
      <trkpt lat="48.74748" lon="1.84766">
        <ele>162</ele>
        <time>2015-11-01T15:11:39Z</time>
      </trkpt>
      <trkpt lat="48.74743" lon="1.84772">
        <ele>162</ele>
        <time>2015-11-01T15:11:44Z</time>
      </trkpt>
      <trkpt lat="48.74705" lon="1.848">
        <ele>162</ele>
        <time>2015-11-01T15:12:16Z</time>
      </trkpt>
      <trkpt lat="48.74669" lon="1.84819">
        <ele>162</ele>
        <time>2015-11-01T15:12:50Z</time>
      </trkpt>
      <trkpt lat="48.74659" lon="1.84824">
        <ele>162</ele>
        <time>2015-11-01T15:13:02Z</time>
      </trkpt>
      <trkpt lat="48.74657" lon="1.84829">
        <ele>163</ele>
        <time>2015-11-01T15:13:12Z</time>
      </trkpt>
      <trkpt lat="48.74624" lon="1.8485">
        <ele>164</ele>
        <time>2015-11-01T15:13:46Z</time>
      </trkpt>
      <trkpt lat="48.74621" lon="1.84856">
        <ele>165</ele>
        <time>2015-11-01T15:13:51Z</time>
      </trkpt>
      <trkpt lat="48.74578" lon="1.84882">
        <ele>167</ele>
        <time>2015-11-01T15:14:25Z</time>
      </trkpt>
      <trkpt lat="48.74549" lon="1.84901">
        <ele>168</ele>
        <time>2015-11-01T15:14:55Z</time>
      </trkpt>
      <trkpt lat="48.74512" lon="1.84919">
        <ele>170</ele>
        <time>2015-11-01T15:15:28Z</time>
      </trkpt>
      <trkpt lat="48.74473" lon="1.84935">
        <ele>170</ele>
        <time>2015-11-01T15:16:03Z</time>
      </trkpt>
      <trkpt lat="48.74465" lon="1.84924">
        <ele>171</ele>
        <time>2015-11-01T15:16:12Z</time>
      </trkpt>
      <trkpt lat="48.74463" lon="1.84922">
        <ele>171</ele>
        <time>2015-11-01T15:16:18Z</time>
      </trkpt>
      <trkpt lat="48.7446" lon="1.84928">
        <ele>171</ele>
        <time>2015-11-01T15:17:36Z</time>
      </trkpt>
      <trkpt lat="48.7446" lon="1.84937">
        <ele>171</ele>
        <time>2015-11-01T15:17:41Z</time>
      </trkpt>
      <trkpt lat="48.7446" lon="1.84943">
        <ele>171</ele>
        <time>2015-11-01T15:17:45Z</time>
      </trkpt>
      <trkpt lat="48.74456" lon="1.84949">
        <ele>171</ele>
        <time>2015-11-01T15:17:49Z</time>
      </trkpt>
      <trkpt lat="48.74428" lon="1.84968">
        <ele>171</ele>
        <time>2015-11-01T15:18:10Z</time>
      </trkpt>
      <trkpt lat="48.74381" lon="1.84976">
        <ele>170</ele>
        <time>2015-11-01T15:18:45Z</time>
      </trkpt>
      <trkpt lat="48.74344" lon="1.84972">
        <ele>169</ele>
        <time>2015-11-01T15:19:20Z</time>
      </trkpt>
      <trkpt lat="48.74339" lon="1.84974">
        <ele>169</ele>
        <time>2015-11-01T15:19:23Z</time>
      </trkpt>
      <trkpt lat="48.74335" lon="1.84978">
        <ele>169</ele>
        <time>2015-11-01T15:19:26Z</time>
      </trkpt>
      <trkpt lat="48.74325" lon="1.84974">
        <ele>169</ele>
        <time>2015-11-01T15:19:35Z</time>
      </trkpt>
      <trkpt lat="48.74279" lon="1.84972">
        <ele>169</ele>
        <time>2015-11-01T15:20:07Z</time>
      </trkpt>
      <trkpt lat="48.74268" lon="1.84971">
        <ele>169</ele>
        <time>2015-11-01T15:20:21Z</time>
      </trkpt>
      <trkpt lat="48.74263" lon="1.84975">
        <ele>169</ele>
        <time>2015-11-01T15:20:26Z</time>
      </trkpt>
      <trkpt lat="48.74239" lon="1.8498">
        <ele>169</ele>
        <time>2015-11-01T15:20:40Z</time>
      </trkpt>
      <trkpt lat="48.74231" lon="1.84976">
        <ele>169</ele>
        <time>2015-11-01T15:20:47Z</time>
      </trkpt>
      <trkpt lat="48.7422" lon="1.84984">
        <ele>170</ele>
        <time>2015-11-01T15:21:03Z</time>
      </trkpt>
      <trkpt lat="48.74211" lon="1.84993">
        <ele>170</ele>
        <time>2015-11-01T15:21:09Z</time>
      </trkpt>
      <trkpt lat="48.74175" lon="1.84996">
        <ele>170</ele>
        <time>2015-11-01T15:21:41Z</time>
      </trkpt>
      <trkpt lat="48.74133" lon="1.84995">
        <ele>169</ele>
        <time>2015-11-01T15:22:12Z</time>
      </trkpt>
      <trkpt lat="48.74128" lon="1.84993">
        <ele>169</ele>
        <time>2015-11-01T15:22:14Z</time>
      </trkpt>
      <trkpt lat="48.74122" lon="1.84986">
        <ele>169</ele>
        <time>2015-11-01T15:22:20Z</time>
      </trkpt>
      <trkpt lat="48.7411" lon="1.84984">
        <ele>169</ele>
        <time>2015-11-01T15:22:29Z</time>
      </trkpt>
      <trkpt lat="48.74096" lon="1.84986">
        <ele>169</ele>
        <time>2015-11-01T15:22:41Z</time>
      </trkpt>
      <trkpt lat="48.74089" lon="1.84979">
        <ele>168</ele>
        <time>2015-11-01T15:22:50Z</time>
      </trkpt>
      <trkpt lat="48.74084" lon="1.84985">
        <ele>168</ele>
        <time>2015-11-01T15:22:56Z</time>
      </trkpt>
      <trkpt lat="48.7408" lon="1.84995">
        <ele>168</ele>
        <time>2015-11-01T15:23:03Z</time>
      </trkpt>
      <trkpt lat="48.74042" lon="1.85024">
        <ele>169</ele>
        <time>2015-11-01T15:23:29Z</time>
      </trkpt>
      <trkpt lat="48.74039" lon="1.85036">
        <ele>169</ele>
        <time>2015-11-01T15:23:36Z</time>
      </trkpt>
      <trkpt lat="48.74031" lon="1.85046">
        <ele>169</ele>
        <time>2015-11-01T15:23:41Z</time>
      </trkpt>
      <trkpt lat="48.74029" lon="1.85069">
        <ele>169</ele>
        <time>2015-11-01T15:23:53Z</time>
      </trkpt>
      <trkpt lat="48.74019" lon="1.85132">
        <ele>167</ele>
        <time>2015-11-01T15:24:21Z</time>
      </trkpt>
      <trkpt lat="48.74023" lon="1.85145">
        <ele>165</ele>
        <time>2015-11-01T15:24:29Z</time>
      </trkpt>
      <trkpt lat="48.7402" lon="1.85152">
        <ele>165</ele>
        <time>2015-11-01T15:24:33Z</time>
      </trkpt>
      <trkpt lat="48.74018" lon="1.85157">
        <ele>164</ele>
        <time>2015-11-01T15:24:36Z</time>
      </trkpt>
      <trkpt lat="48.73998" lon="1.85208">
        <ele>162</ele>
        <time>2015-11-01T15:25:07Z</time>
      </trkpt>
      <trkpt lat="48.73972" lon="1.85257">
        <ele>159</ele>
        <time>2015-11-01T15:25:40Z</time>
      </trkpt>
      <trkpt lat="48.73949" lon="1.85298">
        <ele>157</ele>
        <time>2015-11-01T15:26:01Z</time>
      </trkpt>
      <trkpt lat="48.73945" lon="1.85323">
        <ele>156</ele>
        <time>2015-11-01T15:26:12Z</time>
      </trkpt>
      <trkpt lat="48.73946" lon="1.8533">
        <ele>155</ele>
        <time>2015-11-01T15:26:16Z</time>
      </trkpt>
      <trkpt lat="48.7395" lon="1.85334">
        <ele>155</ele>
        <time>2015-11-01T15:26:19Z</time>
      </trkpt>
      <trkpt lat="48.73951" lon="1.85342">
        <ele>154</ele>
        <time>2015-11-01T15:26:23Z</time>
      </trkpt>
      <trkpt lat="48.73945" lon="1.85381">
        <ele>152</ele>
        <time>2015-11-01T15:26:45Z</time>
      </trkpt>
      <trkpt lat="48.73935" lon="1.85401">
        <ele>152</ele>
        <time>2015-11-01T15:26:55Z</time>
      </trkpt>
      <trkpt lat="48.73933" lon="1.85407">
        <ele>151</ele>
        <time>2015-11-01T15:27:01Z</time>
      </trkpt>
      <trkpt lat="48.73929" lon="1.85438">
        <ele>150</ele>
        <time>2015-11-01T15:27:22Z</time>
      </trkpt>
      <trkpt lat="48.73928" lon="1.85429">
        <ele>150</ele>
        <time>2015-11-01T15:27:27Z</time>
      </trkpt>
      <trkpt lat="48.73906" lon="1.85393">
        <ele>149</ele>
        <time>2015-11-01T15:27:52Z</time>
      </trkpt>
      <trkpt lat="48.73893" lon="1.85338">
        <ele>147</ele>
        <time>2015-11-01T15:28:23Z</time>
      </trkpt>
      <trkpt lat="48.73891" lon="1.85331">
        <ele>147</ele>
        <time>2015-11-01T15:28:27Z</time>
      </trkpt>
      <trkpt lat="48.73886" lon="1.85326">
        <ele>145</ele>
        <time>2015-11-01T15:28:31Z</time>
      </trkpt>
      <trkpt lat="48.73881" lon="1.85311">
        <ele>143</ele>
        <time>2015-11-01T15:28:39Z</time>
      </trkpt>
      <trkpt lat="48.73879" lon="1.85304">
        <ele>143</ele>
        <time>2015-11-01T15:28:42Z</time>
      </trkpt>
      <trkpt lat="48.73869" lon="1.8527">
        <ele>144</ele>
        <time>2015-11-01T15:29:01Z</time>
      </trkpt>
      <trkpt lat="48.73863" lon="1.85247">
        <ele>144</ele>
        <time>2015-11-01T15:29:13Z</time>
      </trkpt>
      <trkpt lat="48.73855" lon="1.85241">
        <ele>144</ele>
        <time>2015-11-01T15:29:22Z</time>
      </trkpt>
      <trkpt lat="48.73851" lon="1.85247">
        <ele>144</ele>
        <time>2015-11-01T15:29:28Z</time>
      </trkpt>
      <trkpt lat="48.73841" lon="1.85281">
        <ele>143</ele>
        <time>2015-11-01T15:29:48Z</time>
      </trkpt>
      <trkpt lat="48.73837" lon="1.85286">
        <ele>143</ele>
        <time>2015-11-01T15:29:53Z</time>
      </trkpt>
      <trkpt lat="48.73822" lon="1.85334">
        <ele>142</ele>
        <time>2015-11-01T15:30:25Z</time>
      </trkpt>
      <trkpt lat="48.73796" lon="1.85392">
        <ele>142</ele>
        <time>2015-11-01T15:30:57Z</time>
      </trkpt>
      <trkpt lat="48.7379" lon="1.85402">
        <ele>142</ele>
        <time>2015-11-01T15:31:04Z</time>
      </trkpt>
      <trkpt lat="48.73781" lon="1.85408">
        <ele>142</ele>
        <time>2015-11-01T15:31:11Z</time>
      </trkpt>
      <trkpt lat="48.73763" lon="1.854">
        <ele>141</ele>
        <time>2015-11-01T15:31:27Z</time>
      </trkpt>
      <trkpt lat="48.73737" lon="1.8538">
        <ele>139</ele>
        <time>2015-11-01T15:31:46Z</time>
      </trkpt>
      <trkpt lat="48.73731" lon="1.85367">
        <ele>139</ele>
        <time>2015-11-01T15:31:53Z</time>
      </trkpt>
      <trkpt lat="48.73697" lon="1.85344">
        <ele>139</ele>
        <time>2015-11-01T15:32:25Z</time>
      </trkpt>
      <trkpt lat="48.73661" lon="1.85326">
        <ele>140</ele>
        <time>2015-11-01T15:33:06Z</time>
      </trkpt>
      <trkpt lat="48.73623" lon="1.85308">
        <ele>141</ele>
        <time>2015-11-01T15:33:37Z</time>
      </trkpt>
      <trkpt lat="48.73576" lon="1.85307">
        <ele>142</ele>
        <time>2015-11-01T15:34:14Z</time>
      </trkpt>
      <trkpt lat="48.73548" lon="1.85283">
        <ele>143</ele>
        <time>2015-11-01T15:34:44Z</time>
      </trkpt>
      <trkpt lat="48.73516" lon="1.85266">
        <ele>144</ele>
        <time>2015-11-01T15:35:19Z</time>
      </trkpt>
      <trkpt lat="48.73502" lon="1.85259">
        <ele>144</ele>
        <time>2015-11-01T15:35:30Z</time>
      </trkpt>
      <trkpt lat="48.73495" lon="1.85249">
        <ele>144</ele>
        <time>2015-11-01T15:35:46Z</time>
      </trkpt>
      <trkpt lat="48.73473" lon="1.85243">
        <ele>145</ele>
        <time>2015-11-01T15:35:59Z</time>
      </trkpt>
      <trkpt lat="48.7347" lon="1.85238">
        <ele>145</ele>
        <time>2015-11-01T15:36:02Z</time>
      </trkpt>
      <trkpt lat="48.73463" lon="1.85234">
        <ele>145</ele>
        <time>2015-11-01T15:36:06Z</time>
      </trkpt>
      <trkpt lat="48.73438" lon="1.85198">
        <ele>146</ele>
        <time>2015-11-01T15:36:35Z</time>
      </trkpt>
      <trkpt lat="48.73422" lon="1.85158">
        <ele>147</ele>
        <time>2015-11-01T15:37:02Z</time>
      </trkpt>
      <trkpt lat="48.73417" lon="1.85119">
        <ele>148</ele>
        <time>2015-11-01T15:37:20Z</time>
      </trkpt>
      <trkpt lat="48.73412" lon="1.85123">
        <ele>148</ele>
        <time>2015-11-01T15:37:33Z</time>
      </trkpt>
      <trkpt lat="48.73391" lon="1.85171">
        <ele>148</ele>
        <time>2015-11-01T15:38:11Z</time>
      </trkpt>
      <trkpt lat="48.73373" lon="1.85191">
        <ele>149</ele>
        <time>2015-11-01T15:38:29Z</time>
      </trkpt>
      <trkpt lat="48.73361" lon="1.8526">
        <ele>152</ele>
        <time>2015-11-01T15:39:08Z</time>
      </trkpt>
      <trkpt lat="48.7335" lon="1.85316">
        <ele>156</ele>
        <time>2015-11-01T15:39:42Z</time>
      </trkpt>
      <trkpt lat="48.73352" lon="1.8533">
        <ele>158</ele>
        <time>2015-11-01T15:39:55Z</time>
      </trkpt>
      <trkpt lat="48.73352" lon="1.85345">
        <ele>159</ele>
        <time>2015-11-01T15:40:05Z</time>
      </trkpt>
      <trkpt lat="48.73345" lon="1.85398">
        <ele>164</ele>
        <time>2015-11-01T15:40:36Z</time>
      </trkpt>
      <trkpt lat="48.73346" lon="1.85422">
        <ele>165</ele>
        <time>2015-11-01T15:40:48Z</time>
      </trkpt>
      <trkpt lat="48.73344" lon="1.85429">
        <ele>165</ele>
        <time>2015-11-01T15:40:51Z</time>
      </trkpt>
      <trkpt lat="48.73343" lon="1.85436">
        <ele>166</ele>
        <time>2015-11-01T15:40:54Z</time>
      </trkpt>
      <trkpt lat="48.73342" lon="1.85443">
        <ele>166</ele>
        <time>2015-11-01T15:40:57Z</time>
      </trkpt>
      <trkpt lat="48.7333" lon="1.85483">
        <ele>169</ele>
        <time>2015-11-01T15:41:33Z</time>
      </trkpt>
      <trkpt lat="48.73324" lon="1.85502">
        <ele>169</ele>
        <time>2015-11-01T15:41:52Z</time>
      </trkpt>
      <trkpt lat="48.73321" lon="1.85506">
        <ele>170</ele>
        <time>2015-11-01T15:43:01Z</time>
      </trkpt>
      <trkpt lat="48.73317" lon="1.85504">
        <ele>170</ele>
        <time>2015-11-01T15:43:15Z</time>
      </trkpt>
      <trkpt lat="48.73312" lon="1.85502">
        <ele>170</ele>
        <time>2015-11-01T15:44:09Z</time>
      </trkpt>
      <trkpt lat="48.73304" lon="1.85495">
        <ele>170</ele>
        <time>2015-11-01T15:44:21Z</time>
      </trkpt>
      <trkpt lat="48.73304" lon="1.85503">
        <ele>170</ele>
        <time>2015-11-01T15:44:59Z</time>
      </trkpt>
      <trkpt lat="48.73293" lon="1.85559">
        <ele>170</ele>
        <time>2015-11-01T15:45:34Z</time>
      </trkpt>
      <trkpt lat="48.73291" lon="1.85581">
        <ele>170</ele>
        <time>2015-11-01T15:45:52Z</time>
      </trkpt>
      <trkpt lat="48.73298" lon="1.85633">
        <ele>171</ele>
        <time>2015-11-01T15:46:23Z</time>
      </trkpt>
      <trkpt lat="48.73296" lon="1.85648">
        <ele>170</ele>
        <time>2015-11-01T15:46:34Z</time>
      </trkpt>
      <trkpt lat="48.73283" lon="1.85674">
        <ele>171</ele>
        <time>2015-11-01T15:47:02Z</time>
      </trkpt>
      <trkpt lat="48.73257" lon="1.857">
        <ele>171</ele>
        <time>2015-11-01T15:47:34Z</time>
      </trkpt>
      <trkpt lat="48.73232" lon="1.85721">
        <ele>171</ele>
        <time>2015-11-01T15:48:05Z</time>
      </trkpt>
      <trkpt lat="48.73211" lon="1.85738">
        <ele>171</ele>
        <time>2015-11-01T15:48:54Z</time>
      </trkpt>
      <trkpt lat="48.73205" lon="1.85748">
        <ele>171</ele>
        <time>2015-11-01T15:49:03Z</time>
      </trkpt>
      <trkpt lat="48.73203" lon="1.85757">
        <ele>171</ele>
        <time>2015-11-01T15:49:09Z</time>
      </trkpt>
      <trkpt lat="48.73192" lon="1.85769">
        <ele>172</ele>
        <time>2015-11-01T15:49:29Z</time>
      </trkpt>
      <trkpt lat="48.73175" lon="1.85814">
        <ele>172</ele>
        <time>2015-11-01T15:50:00Z</time>
      </trkpt>
      <trkpt lat="48.73161" lon="1.85852">
        <ele>172</ele>
        <time>2015-11-01T15:50:35Z</time>
      </trkpt>
      <trkpt lat="48.7313" lon="1.85911">
        <ele>172</ele>
        <time>2015-11-01T15:51:07Z</time>
      </trkpt>
      <trkpt lat="48.73122" lon="1.8592">
        <ele>172</ele>
        <time>2015-11-01T15:51:17Z</time>
      </trkpt>
      <trkpt lat="48.73106" lon="1.8597">
        <ele>173</ele>
        <time>2015-11-01T15:51:54Z</time>
      </trkpt>
      <trkpt lat="48.73101" lon="1.85991">
        <ele>173</ele>
        <time>2015-11-01T15:52:17Z</time>
      </trkpt>
      <trkpt lat="48.73092" lon="1.85999">
        <ele>173</ele>
        <time>2015-11-01T15:52:32Z</time>
      </trkpt>
      <trkpt lat="48.73077" lon="1.86037">
        <ele>173</ele>
        <time>2015-11-01T15:52:53Z</time>
      </trkpt>
      <trkpt lat="48.73079" lon="1.86044">
        <ele>173</ele>
        <time>2015-11-01T15:52:57Z</time>
      </trkpt>
      <trkpt lat="48.73079" lon="1.8606">
        <ele>173</ele>
        <time>2015-11-01T15:53:04Z</time>
      </trkpt>
      <trkpt lat="48.73092" lon="1.86103">
        <ele>173</ele>
        <time>2015-11-01T15:53:27Z</time>
      </trkpt>
      <trkpt lat="48.73091" lon="1.86116">
        <ele>173</ele>
        <time>2015-11-01T15:53:35Z</time>
      </trkpt>
      <trkpt lat="48.73095" lon="1.86124">
        <ele>173</ele>
        <time>2015-11-01T15:53:42Z</time>
      </trkpt>
      <trkpt lat="48.73093" lon="1.86171">
        <ele>173</ele>
        <time>2015-11-01T15:54:02Z</time>
      </trkpt>
      <trkpt lat="48.73085" lon="1.86181">
        <ele>173</ele>
        <time>2015-11-01T15:54:11Z</time>
      </trkpt>
      <trkpt lat="48.73088" lon="1.86188">
        <ele>172</ele>
        <time>2015-11-01T15:54:15Z</time>
      </trkpt>
      <trkpt lat="48.731" lon="1.86241">
        <ele>173</ele>
        <time>2015-11-01T15:54:58Z</time>
      </trkpt>
      <trkpt lat="48.73115" lon="1.86259">
        <ele>173</ele>
        <time>2015-11-01T15:55:14Z</time>
      </trkpt>
      <trkpt lat="48.73147" lon="1.86282">
        <ele>172</ele>
        <time>2015-11-01T15:55:45Z</time>
      </trkpt>
      <trkpt lat="48.73181" lon="1.86306">
        <ele>172</ele>
        <time>2015-11-01T15:56:15Z</time>
      </trkpt>
      <trkpt lat="48.73223" lon="1.86333">
        <ele>171</ele>
        <time>2015-11-01T15:56:47Z</time>
      </trkpt>
      <trkpt lat="48.73229" lon="1.8634">
        <ele>171</ele>
        <time>2015-11-01T15:56:54Z</time>
      </trkpt>
      <trkpt lat="48.73268" lon="1.86364">
        <ele>171</ele>
        <time>2015-11-01T15:57:26Z</time>
      </trkpt>
      <trkpt lat="48.73272" lon="1.86366">
        <ele>171</ele>
        <time>2015-11-01T15:57:29Z</time>
      </trkpt>
      <trkpt lat="48.7328" lon="1.86376">
        <ele>170</ele>
        <time>2015-11-01T15:57:41Z</time>
      </trkpt>
      <trkpt lat="48.73299" lon="1.8639">
        <ele>170</ele>
        <time>2015-11-01T15:57:54Z</time>
      </trkpt>
      <trkpt lat="48.73303" lon="1.86398">
        <ele>170</ele>
        <time>2015-11-01T15:58:02Z</time>
      </trkpt>
      <trkpt lat="48.73304" lon="1.86435">
        <ele>169</ele>
        <time>2015-11-01T15:58:26Z</time>
      </trkpt>
      <trkpt lat="48.73293" lon="1.86463">
        <ele>170</ele>
        <time>2015-11-01T15:58:41Z</time>
      </trkpt>
      <trkpt lat="48.73287" lon="1.86522">
        <ele>171</ele>
        <time>2015-11-01T15:59:17Z</time>
      </trkpt>
      <trkpt lat="48.73268" lon="1.86566">
        <ele>172</ele>
        <time>2015-11-01T15:59:42Z</time>
      </trkpt>
      <trkpt lat="48.73264" lon="1.8657">
        <ele>172</ele>
        <time>2015-11-01T15:59:46Z</time>
      </trkpt>
      <trkpt lat="48.7326" lon="1.86584">
        <ele>172</ele>
        <time>2015-11-01T15:59:54Z</time>
      </trkpt>
      <trkpt lat="48.73229" lon="1.86604">
        <ele>172</ele>
        <time>2015-11-01T16:00:18Z</time>
      </trkpt>
      <trkpt lat="48.73196" lon="1.86616">
        <ele>171</ele>
        <time>2015-11-01T16:00:48Z</time>
      </trkpt>
      <trkpt lat="48.73176" lon="1.86627">
        <ele>171</ele>
        <time>2015-11-01T16:01:05Z</time>
      </trkpt>
      <trkpt lat="48.73173" lon="1.8664">
        <ele>172</ele>
        <time>2015-11-01T16:01:13Z</time>
      </trkpt>
      <trkpt lat="48.73169" lon="1.86664">
        <ele>172</ele>
        <time>2015-11-01T16:01:28Z</time>
      </trkpt>
      <trkpt lat="48.73148" lon="1.86716">
        <ele>173</ele>
        <time>2015-11-01T16:02:00Z</time>
      </trkpt>
      <trkpt lat="48.73131" lon="1.86771">
        <ele>172</ele>
        <time>2015-11-01T16:02:31Z</time>
      </trkpt>
      <trkpt lat="48.73115" lon="1.8682">
        <ele>170</ele>
        <time>2015-11-01T16:03:02Z</time>
      </trkpt>
      <trkpt lat="48.73111" lon="1.86835">
        <ele>170</ele>
        <time>2015-11-01T16:03:12Z</time>
      </trkpt>
      <trkpt lat="48.73108" lon="1.86839">
        <ele>169</ele>
        <time>2015-11-01T16:03:16Z</time>
      </trkpt>
      <trkpt lat="48.73091" lon="1.86905">
        <ele>169</ele>
        <time>2015-11-01T16:03:52Z</time>
      </trkpt>
      <trkpt lat="48.73064" lon="1.86953">
        <ele>170</ele>
        <time>2015-11-01T16:04:24Z</time>
      </trkpt>
      <trkpt lat="48.73035" lon="1.87004">
        <ele>170</ele>
        <time>2015-11-01T16:05:00Z</time>
      </trkpt>
      <trkpt lat="48.73028" lon="1.87017">
        <ele>170</ele>
        <time>2015-11-01T16:05:09Z</time>
      </trkpt>
      <trkpt lat="48.73027" lon="1.87025">
        <ele>171</ele>
        <time>2015-11-01T16:05:14Z</time>
      </trkpt>
      <trkpt lat="48.73006" lon="1.87077">
        <ele>171</ele>
        <time>2015-11-01T16:05:46Z</time>
      </trkpt>
      <trkpt lat="48.72989" lon="1.87121">
        <ele>171</ele>
        <time>2015-11-01T16:06:17Z</time>
      </trkpt>
      <trkpt lat="48.72986" lon="1.87142">
        <ele>171</ele>
        <time>2015-11-01T16:06:30Z</time>
      </trkpt>
      <trkpt lat="48.72964" lon="1.872">
        <ele>171</ele>
        <time>2015-11-01T16:07:01Z</time>
      </trkpt>
      <trkpt lat="48.72946" lon="1.87256">
        <ele>171</ele>
        <time>2015-11-01T16:07:33Z</time>
      </trkpt>
      <trkpt lat="48.72933" lon="1.87302">
        <ele>170</ele>
        <time>2015-11-01T16:08:04Z</time>
      </trkpt>
      <trkpt lat="48.72932" lon="1.87309">
        <ele>171</ele>
        <time>2015-11-01T16:08:09Z</time>
      </trkpt>
      <trkpt lat="48.72919" lon="1.87374">
        <ele>171</ele>
        <time>2015-11-01T16:08:43Z</time>
      </trkpt>
      <trkpt lat="48.72916" lon="1.87397">
        <ele>170</ele>
        <time>2015-11-01T16:08:55Z</time>
      </trkpt>
      <trkpt lat="48.7291" lon="1.8741">
        <ele>170</ele>
        <time>2015-11-01T16:09:03Z</time>
      </trkpt>
      <trkpt lat="48.72908" lon="1.87428">
        <ele>169</ele>
        <time>2015-11-01T16:09:14Z</time>
      </trkpt>
      <trkpt lat="48.72905" lon="1.87443">
        <ele>169</ele>
        <time>2015-11-01T16:09:21Z</time>
      </trkpt>
      <trkpt lat="48.729" lon="1.87501">
        <ele>168</ele>
        <time>2015-11-01T16:09:52Z</time>
      </trkpt>
      <trkpt lat="48.72909" lon="1.87536">
        <ele>168</ele>
        <time>2015-11-01T16:10:07Z</time>
      </trkpt>
      <trkpt lat="48.72903" lon="1.87577">
        <ele>167</ele>
        <time>2015-11-01T16:10:31Z</time>
      </trkpt>
      <trkpt lat="48.72898" lon="1.87582">
        <ele>167</ele>
        <time>2015-11-01T16:10:35Z</time>
      </trkpt>
      <trkpt lat="48.72893" lon="1.87585">
        <ele>167</ele>
        <time>2015-11-01T16:10:39Z</time>
      </trkpt>
      <trkpt lat="48.72891" lon="1.87592">
        <ele>167</ele>
        <time>2015-11-01T16:10:43Z</time>
      </trkpt>
      <trkpt lat="48.72889" lon="1.87598">
        <ele>167</ele>
        <time>2015-11-01T16:10:47Z</time>
      </trkpt>
      <trkpt lat="48.72885" lon="1.87602">
        <ele>167</ele>
        <time>2015-11-01T16:10:52Z</time>
      </trkpt>
      <trkpt lat="48.72882" lon="1.87608">
        <ele>167</ele>
        <time>2015-11-01T16:10:56Z</time>
      </trkpt>
      <trkpt lat="48.7288" lon="1.87616">
        <ele>167</ele>
        <time>2015-11-01T16:11:01Z</time>
      </trkpt>
      <trkpt lat="48.72882" lon="1.87624">
        <ele>167</ele>
        <time>2015-11-01T16:11:04Z</time>
      </trkpt>
      <trkpt lat="48.72879" lon="1.8764">
        <ele>167</ele>
        <time>2015-11-01T16:11:14Z</time>
      </trkpt>
      <trkpt lat="48.72876" lon="1.87645">
        <ele>167</ele>
        <time>2015-11-01T16:11:18Z</time>
      </trkpt>
      <trkpt lat="48.72876" lon="1.8766">
        <ele>167</ele>
        <time>2015-11-01T16:11:25Z</time>
      </trkpt>
      <trkpt lat="48.72865" lon="1.87685">
        <ele>166</ele>
        <time>2015-11-01T16:11:43Z</time>
      </trkpt>
      <trkpt lat="48.72845" lon="1.87719">
        <ele>164</ele>
        <time>2015-11-01T16:12:09Z</time>
      </trkpt>
      <trkpt lat="48.72844" lon="1.87727">
        <ele>164</ele>
        <time>2015-11-01T16:12:13Z</time>
      </trkpt>
      <trkpt lat="48.72829" lon="1.87749">
        <ele>165</ele>
        <time>2015-11-01T16:12:30Z</time>
      </trkpt>
      <trkpt lat="48.72798" lon="1.87788">
        <ele>165</ele>
        <time>2015-11-01T16:13:04Z</time>
      </trkpt>
      <trkpt lat="48.72789" lon="1.87787">
        <ele>165</ele>
        <time>2015-11-01T16:13:17Z</time>
      </trkpt>
      <trkpt lat="48.72762" lon="1.87829">
        <ele>165</ele>
        <time>2015-11-01T16:13:49Z</time>
      </trkpt>
      <trkpt lat="48.72742" lon="1.87873">
        <ele>165</ele>
        <time>2015-11-01T16:14:21Z</time>
      </trkpt>
      <trkpt lat="48.72734" lon="1.87913">
        <ele>164</ele>
        <time>2015-11-01T16:14:42Z</time>
      </trkpt>
      <trkpt lat="48.7273" lon="1.87918">
        <ele>164</ele>
        <time>2015-11-01T16:14:47Z</time>
      </trkpt>
      <trkpt lat="48.72723" lon="1.87929">
        <ele>164</ele>
        <time>2015-11-01T16:14:54Z</time>
      </trkpt>
      <trkpt lat="48.72722" lon="1.87944">
        <ele>164</ele>
        <time>2015-11-01T16:15:04Z</time>
      </trkpt>
      <trkpt lat="48.72701" lon="1.88003">
        <ele>164</ele>
        <time>2015-11-01T16:15:35Z</time>
      </trkpt>
      <trkpt lat="48.72684" lon="1.88048">
        <ele>164</ele>
        <time>2015-11-01T16:16:05Z</time>
      </trkpt>
      <trkpt lat="48.72664" lon="1.88106">
        <ele>164</ele>
        <time>2015-11-01T16:16:37Z</time>
      </trkpt>
      <trkpt lat="48.72646" lon="1.88156">
        <ele>164</ele>
        <time>2015-11-01T16:17:08Z</time>
      </trkpt>
      <trkpt lat="48.72629" lon="1.8821">
        <ele>164</ele>
        <time>2015-11-01T16:17:41Z</time>
      </trkpt>
      <trkpt lat="48.72613" lon="1.88269">
        <ele>164</ele>
        <time>2015-11-01T16:18:11Z</time>
      </trkpt>
      <trkpt lat="48.72609" lon="1.88276">
        <ele>163</ele>
        <time>2015-11-01T16:18:16Z</time>
      </trkpt>
      <trkpt lat="48.72595" lon="1.88346">
        <ele>162</ele>
        <time>2015-11-01T16:18:50Z</time>
      </trkpt>
      <trkpt lat="48.72593" lon="1.88353">
        <ele>162</ele>
        <time>2015-11-01T16:18:56Z</time>
      </trkpt>
      <trkpt lat="48.72579" lon="1.88403">
        <ele>162</ele>
        <time>2015-11-01T16:19:25Z</time>
      </trkpt>
      <trkpt lat="48.72565" lon="1.8846">
        <ele>165</ele>
        <time>2015-11-01T16:19:56Z</time>
      </trkpt>
      <trkpt lat="48.72555" lon="1.88518">
        <ele>164</ele>
        <time>2015-11-01T16:20:28Z</time>
      </trkpt>
      <trkpt lat="48.72541" lon="1.88574">
        <ele>163</ele>
        <time>2015-11-01T16:20:58Z</time>
      </trkpt>
      <trkpt lat="48.72529" lon="1.88629">
        <ele>162</ele>
        <time>2015-11-01T16:21:30Z</time>
      </trkpt>
      <trkpt lat="48.72529" lon="1.88678">
        <ele>162</ele>
        <time>2015-11-01T16:21:57Z</time>
      </trkpt>
      <trkpt lat="48.72528" lon="1.88685">
        <ele>163</ele>
        <time>2015-11-01T16:22:02Z</time>
      </trkpt>
      <trkpt lat="48.72524" lon="1.88689">
        <ele>163</ele>
        <time>2015-11-01T16:22:08Z</time>
      </trkpt>
      <trkpt lat="48.72519" lon="1.8869">
        <ele>164</ele>
        <time>2015-11-01T16:22:13Z</time>
      </trkpt>
      <trkpt lat="48.72482" lon="1.88705">
        <ele>164</ele>
        <time>2015-11-01T16:22:44Z</time>
      </trkpt>
      <trkpt lat="48.72477" lon="1.88707">
        <ele>164</ele>
        <time>2015-11-01T16:22:48Z</time>
      </trkpt>
      <trkpt lat="48.72444" lon="1.88732">
        <ele>165</ele>
        <time>2015-11-01T16:23:21Z</time>
      </trkpt>
      <trkpt lat="48.72416" lon="1.88772">
        <ele>164</ele>
        <time>2015-11-01T16:23:53Z</time>
      </trkpt>
      <trkpt lat="48.72376" lon="1.88838">
        <ele>164</ele>
        <time>2015-11-01T16:24:24Z</time>
      </trkpt>
      <trkpt lat="48.72344" lon="1.88894">
        <ele>164</ele>
        <time>2015-11-01T16:24:55Z</time>
      </trkpt>
      <trkpt lat="48.72309" lon="1.88915">
        <ele>165</ele>
        <time>2015-11-01T16:25:16Z</time>
      </trkpt>
      <trkpt lat="48.72305" lon="1.88911">
        <ele>165</ele>
        <time>2015-11-01T16:25:22Z</time>
      </trkpt>
      <trkpt lat="48.72299" lon="1.88919">
        <ele>165</ele>
        <time>2015-11-01T16:25:32Z</time>
      </trkpt>
      <trkpt lat="48.72292" lon="1.88927">
        <ele>166</ele>
        <time>2015-11-01T16:25:37Z</time>
      </trkpt>
      <trkpt lat="48.72287" lon="1.88934">
        <ele>165</ele>
        <time>2015-11-01T16:25:45Z</time>
      </trkpt>
      <trkpt lat="48.72287" lon="1.88951">
        <ele>165</ele>
        <time>2015-11-01T16:25:50Z</time>
      </trkpt>
      <trkpt lat="48.72278" lon="1.88982">
        <ele>165</ele>
        <time>2015-11-01T16:26:05Z</time>
      </trkpt>
      <trkpt lat="48.72253" lon="1.89012">
        <ele>165</ele>
        <time>2015-11-01T16:26:25Z</time>
      </trkpt>
      <trkpt lat="48.72241" lon="1.89019">
        <ele>166</ele>
        <time>2015-11-01T16:26:35Z</time>
      </trkpt>
      <trkpt lat="48.72236" lon="1.89014">
        <ele>166</ele>
        <time>2015-11-01T16:26:38Z</time>
      </trkpt>
      <trkpt lat="48.72232" lon="1.8901">
        <ele>166</ele>
        <time>2015-11-01T16:26:40Z</time>
      </trkpt>
      <trkpt lat="48.72227" lon="1.89009">
        <ele>166</ele>
        <time>2015-11-01T16:26:47Z</time>
      </trkpt>
      <trkpt lat="48.72222" lon="1.89012">
        <ele>166</ele>
        <time>2015-11-01T16:26:52Z</time>
      </trkpt>
      <trkpt lat="48.72216" lon="1.89006">
        <ele>166</ele>
        <time>2015-11-01T16:27:09Z</time>
      </trkpt>
      <trkpt lat="48.72213" lon="1.89005">
        <ele>167</ele>
        <time>2015-11-01T16:27:15Z</time>
      </trkpt>
      <trkpt lat="48.7221" lon="1.89009">
        <ele>167</ele>
        <time>2015-11-01T16:27:17Z</time>
      </trkpt>
      <trkpt lat="48.72208" lon="1.89016">
        <ele>167</ele>
        <time>2015-11-01T16:27:34Z</time>
      </trkpt>
      <trkpt lat="48.72212" lon="1.89021">
        <ele>167</ele>
        <time>2015-11-01T16:27:41Z</time>
      </trkpt>
      <trkpt lat="48.72208" lon="1.89027">
        <ele>166</ele>
        <time>2015-11-01T16:27:50Z</time>
      </trkpt>
      <trkpt lat="48.72204" lon="1.89024">
        <ele>166</ele>
        <time>2015-11-01T16:27:54Z</time>
      </trkpt>
      <trkpt lat="48.72199" lon="1.89025">
        <ele>167</ele>
        <time>2015-11-01T16:27:58Z</time>
      </trkpt>
      <trkpt lat="48.72194" lon="1.89029">
        <ele>168</ele>
        <time>2015-11-01T16:28:02Z</time>
      </trkpt>
      <trkpt lat="48.72194" lon="1.89022">
        <ele>168</ele>
        <time>2015-11-01T16:28:08Z</time>
      </trkpt>
      <trkpt lat="48.72198" lon="1.89024">
        <ele>168</ele>
        <time>2015-11-01T16:28:18Z</time>
      </trkpt>
      <trkpt lat="48.72209" lon="1.8902">
        <ele>167</ele>
        <time>2015-11-01T16:28:34Z</time>
      </trkpt>
      <trkpt lat="48.7221" lon="1.89013">
        <ele>166</ele>
        <time>2015-11-01T16:28:39Z</time>
      </trkpt>
      <trkpt lat="48.72206" lon="1.8901">
        <ele>167</ele>
        <time>2015-11-01T16:28:54Z</time>
      </trkpt>
      <trkpt lat="48.72201" lon="1.89014">
        <ele>168</ele>
        <time>2015-11-01T16:29:18Z</time>
      </trkpt>
    </trkseg>
  </trk>
</gpx>